
Distance (Route):
Temperature : 2.6°C
Humidity : 85.0%
Pressure : 0hPa| Receiver | Frames | First received | Last received |
|---|---|---|---|
| DL9RDZ-1 | 482 | 2026-09-01 11:06:55 | 2026-09-01 12:52:44 |
| Receiver | Date | Latitude | Longitude | Direction | Speed | Altitude | Climb | Temperature | Humidity | Pressure | Voltage | Killtimer | Uptime | BKT | XDATA |
|---|---|---|---|---|---|---|---|---|---|---|---|---|---|---|---|
| DL9RDZ-1 | 2026-09-01 12:52:44 | 63.97269 | -21.51156 | 59° | 7km/h | 1024m | -10.2m/s | 2.6°C | 85.0% | 0hPa | 0V | 08:03:00 | 00:00:00 | 00:00:00 | |
| DL9RDZ-1 | 2026-09-01 12:52:33 | 63.97268 | -21.51184 | 118° | 4km/h | 1131m | -10.2m/s | 1.6°C | 92.2% | 0hPa | 0V | 08:03:00 | 00:00:00 | 00:00:00 | |
| DL9RDZ-1 | 2026-09-01 12:52:22 | 63.97269 | -21.51212 | 76° | 5km/h | 1238m | -10.5m/s | 0.7°C | 94.7% | 0hPa | 0V | 08:03:00 | 00:00:00 | 00:00:00 | |
| DL9RDZ-1 | 2026-09-01 12:52:11 | 63.97266 | -21.51253 | 77° | 5km/h | 1344m | -10.5m/s | -0.3°C | 96.0% | 0hPa | 0V | 08:04:00 | 00:00:00 | 00:00:00 | |
| DL9RDZ-1 | 2026-09-01 12:52:00 | 63.97262 | -21.51286 | 54° | 5km/h | 1446m | -9.4m/s | -0.9°C | 98.2% | 0hPa | 0V | 08:04:00 | 00:00:00 | 00:00:00 | |
| DL9RDZ-1 | 2026-09-01 12:51:50 | 63.97253 | -21.51333 | 66° | 11km/h | 1540m | -10.8m/s | -0.8°C | 75.6% | 0hPa | 0V | 08:04:00 | 00:00:00 | 00:00:00 | |
| DL9RDZ-1 | 2026-09-01 12:51:39 | 63.97243 | -21.51389 | 58° | 5km/h | 1642m | -10.6m/s | -1.0°C | 67.6% | 0hPa | 0V | 08:04:00 | 00:00:00 | 00:00:00 | |
| DL9RDZ-1 | 2026-09-01 12:51:29 | 63.97234 | -21.51416 | 37° | 7km/h | 1738m | -11.1m/s | -1.7°C | 68.6% | 0hPa | 0V | 08:04:00 | 00:00:00 | 00:00:00 | |
| DL9RDZ-1 | 2026-09-01 12:51:19 | 63.97225 | -21.51441 | 60° | 5km/h | 1835m | -10.3m/s | -2.1°C | 59.8% | 0hPa | 0V | 08:05:00 | 00:00:00 | 00:00:00 | |
| DL9RDZ-1 | 2026-09-01 12:51:08 | 63.97214 | -21.51473 | 43° | 9km/h | 1947m | -11.8m/s | -3.0°C | 59.8% | 0hPa | 0V | 08:05:00 | 00:00:00 | 00:00:00 | |
| DL9RDZ-1 | 2026-09-01 12:50:58 | 63.97202 | -21.51507 | 49° | 9km/h | 2043m | -9.3m/s | -3.8°C | 62.5% | 0hPa | 0V | 08:05:00 | 00:00:00 | 00:00:00 | |
| DL9RDZ-1 | 2026-09-01 12:50:47 | 63.97187 | -21.51562 | 81° | 11km/h | 2153m | -10.9m/s | -4.7°C | 67.8% | 0hPa | 0V | 08:05:00 | 00:00:00 | 00:00:00 | |
| DL9RDZ-1 | 2026-09-01 12:50:37 | 63.97178 | -21.51616 | 68° | 7km/h | 2248m | -10.9m/s | -5.5°C | 67.2% | 0hPa | 0V | 08:06:00 | 00:00:00 | 00:00:00 | |
| DL9RDZ-1 | 2026-09-01 12:50:26 | 63.97175 | -21.51667 | 96° | 7km/h | 2359m | -9.5m/s | -5.6°C | 39.2% | 0hPa | 0V | 08:06:00 | 00:00:00 | 00:00:00 | |
| DL9RDZ-1 | 2026-09-01 12:50:16 | 63.97179 | -21.51723 | 102° | 9km/h | 2458m | -10.3m/s | -6.0°C | 25.4% | 0hPa | 0V | 08:06:00 | 00:00:00 | 00:00:00 | |
| DL9RDZ-1 | 2026-09-01 12:50:07 | 63.97183 | -21.51784 | 106° | 11km/h | 2552m | -10.4m/s | -6.5°C | 41.3% | 0hPa | 0V | 08:06:00 | 00:00:00 | 00:00:00 | |
| DL9RDZ-1 | 2026-09-01 12:49:56 | 63.97191 | -21.51849 | 118° | 11km/h | 2651m | -10.1m/s | -7.0°C | 35.8% | 0hPa | 0V | 08:06:00 | 00:00:00 | 00:00:00 | |
| DL9RDZ-1 | 2026-09-01 12:49:45 | 63.97205 | -21.51918 | 108° | 13km/h | 2767m | -12.3m/s | -7.7°C | 34.1% | 0hPa | 0V | 08:07:00 | 00:00:00 | 00:00:00 | |
| DL9RDZ-1 | 2026-09-01 12:49:34 | 63.97221 | -21.51990 | 119° | 11km/h | 2885m | -11.2m/s | -8.3°C | 32.1% | 0hPa | 0V | 08:07:00 | 00:00:00 | 00:00:00 | |
| DL9RDZ-1 | 2026-09-01 12:49:24 | 63.97236 | -21.52059 | 122° | 13km/h | 2987m | -10.4m/s | -9.0°C | 39.1% | 0hPa | 0V | 08:07:00 | 00:00:00 | 00:00:00 | |
| DL9RDZ-1 | 2026-09-01 12:49:13 | 63.97249 | -21.52134 | 119° | 13km/h | 3103m | -11.2m/s | -9.8°C | 44.5% | 0hPa | 0V | 08:07:00 | 00:00:00 | 00:00:00 | |
| DL9RDZ-1 | 2026-09-01 12:49:02 | 63.97265 | -21.52215 | 117° | 16km/h | 3215m | -11.2m/s | -10.3°C | 54.6% | 0hPa | 0V | 08:07:00 | 00:00:00 | 00:00:00 | |
| DL9RDZ-1 | 2026-09-01 12:48:51 | 63.97285 | -21.52308 | 115° | 16km/h | 3332m | -11.8m/s | -10.8°C | 25.5% | 0hPa | 0V | 08:08:00 | 00:00:00 | 00:00:00 | |
| DL9RDZ-1 | 2026-09-01 12:48:41 | 63.97303 | -21.52389 | 112° | 15km/h | 3438m | -11.2m/s | -11.2°C | 27.0% | 0hPa | 0V | 08:08:00 | 00:00:00 | 00:00:00 | |
| DL9RDZ-1 | 2026-09-01 12:48:30 | 63.97328 | -21.52477 | 129° | 16km/h | 3553m | -11.4m/s | -12.0°C | 53.4% | 0hPa | 0V | 08:08:00 | 00:00:00 | 00:00:00 | |
| DL9RDZ-1 | 2026-09-01 12:48:20 | 63.97361 | -21.52550 | 140° | 15km/h | 3672m | -11.8m/s | -12.8°C | 58.4% | 0hPa | 0V | 08:08:00 | 00:00:00 | 00:00:00 | |
| DL9RDZ-1 | 2026-09-01 12:48:08 | 63.97390 | -21.52619 | 142° | 16km/h | 3795m | -11.2m/s | -13.5°C | 57.4% | 0hPa | 0V | 08:08:00 | 00:00:00 | 00:00:00 | |
| DL9RDZ-1 | 2026-09-01 12:47:58 | 63.97417 | -21.52680 | 135° | 15km/h | 3904m | -11.1m/s | -14.2°C | 58.3% | 0hPa | 0V | 08:08:00 | 00:00:00 | 00:00:00 | |
| DL9RDZ-1 | 2026-09-01 12:47:47 | 63.97447 | -21.52750 | 126° | 15km/h | 4023m | -11.8m/s | -14.7°C | 54.4% | 0hPa | 0V | 08:08:00 | 00:00:00 | 00:00:00 | |
| DL9RDZ-1 | 2026-09-01 12:47:36 | 63.97469 | -21.52823 | 120° | 13km/h | 4143m | -11.9m/s | -15.4°C | 26.7% | 0hPa | 0V | 08:08:00 | 00:00:00 | 00:00:00 | |
| DL9RDZ-1 | 2026-09-01 12:47:16 | 63.97510 | -21.52960 | 119° | 18km/h | 4363m | -11.6m/s | -16.7°C | 54.6% | 0hPa | 0V | 08:08:00 | 00:00:00 | 00:00:00 | |
| DL9RDZ-1 | 2026-09-01 12:47:05 | 63.97541 | -21.53060 | 133° | 24km/h | 4483m | -11.9m/s | -17.1°C | 56.8% | 0hPa | 0V | 08:09:00 | 00:00:00 | 00:00:00 | |
| DL9RDZ-1 | 2026-09-01 12:46:54 | 63.97578 | -21.53176 | 126° | 20km/h | 4607m | -12.0m/s | -17.8°C | 60.2% | 0hPa | 0V | 08:09:00 | 00:00:00 | 00:00:00 | |
| DL9RDZ-1 | 2026-09-01 12:46:43 | 63.97612 | -21.53308 | 117° | 24km/h | 4730m | -12.9m/s | -18.3°C | 58.9% | 0hPa | 0V | 08:09:00 | 00:00:00 | 00:00:00 | |
| DL9RDZ-1 | 2026-09-01 12:46:33 | 63.97643 | -21.53436 | 123° | 26km/h | 4840m | -10.9m/s | -18.9°C | 61.4% | 0hPa | 0V | 08:09:00 | 00:00:00 | 00:00:00 | |
| DL9RDZ-1 | 2026-09-01 12:46:12 | 63.97729 | -21.53706 | 125° | 29km/h | 5071m | -11.6m/s | -19.9°C | 57.8% | 0hPa | 0V | 08:10:00 | 00:00:00 | 00:00:00 | |
| DL9RDZ-1 | 2026-09-01 12:46:01 | 63.97780 | -21.53872 | 127° | 31km/h | 5192m | -11.2m/s | -20.7°C | 63.0% | 0hPa | 0V | 08:10:00 | 00:00:00 | 00:00:00 | |
| DL9RDZ-1 | 2026-09-01 12:45:51 | 63.97830 | -21.54021 | 132° | 33km/h | 5301m | -11.1m/s | -21.6°C | 67.0% | 0hPa | 0V | 08:10:00 | 00:00:00 | 00:00:00 | |
| DL9RDZ-1 | 2026-09-01 12:45:41 | 63.97885 | -21.54185 | 119° | 33km/h | 5427m | -11.7m/s | -22.3°C | 66.8% | 0hPa | 0V | 08:10:00 | 00:00:00 | 00:00:00 | |
| DL9RDZ-1 | 2026-09-01 12:45:30 | 63.97927 | -21.54360 | 117° | 37km/h | 5537m | -12.8m/s | -23.1°C | 68.4% | 0hPa | 0V | 08:11:00 | 00:00:00 | 00:00:00 | |
| DL9RDZ-1 | 2026-09-01 12:45:20 | 63.97961 | -21.54564 | 111° | 37km/h | 5651m | -12.6m/s | -23.7°C | 73.4% | 0hPa | 0V | 08:11:00 | 00:00:00 | 00:00:00 | |
| DL9RDZ-1 | 2026-09-01 12:45:10 | 63.97988 | -21.54775 | 103° | 38km/h | 5762m | -12.2m/s | -24.6°C | 74.0% | 0hPa | 0V | 08:11:00 | 00:00:00 | 00:00:00 | |
| DL9RDZ-1 | 2026-09-01 12:44:59 | 63.98016 | -21.55019 | 106° | 40km/h | 5884m | -11.7m/s | -25.2°C | 69.8% | 0hPa | 0V | 08:11:00 | 00:00:00 | 00:00:00 | |
| DL9RDZ-1 | 2026-09-01 12:44:48 | 63.98045 | -21.55264 | 105° | 37km/h | 6008m | -11.4m/s | -26.2°C | 71.2% | 0hPa | 0V | 08:11:00 | 00:00:00 | 00:00:00 | |
| DL9RDZ-1 | 2026-09-01 12:44:37 | 63.98064 | -21.55506 | 97° | 42km/h | 6127m | -12.2m/s | -26.9°C | 67.5% | 0hPa | 0V | 08:12:00 | 00:00:00 | 00:00:00 | |
| DL9RDZ-1 | 2026-09-01 12:44:26 | 63.98076 | -21.55765 | 98° | 44km/h | 6251m | -12.7m/s | -27.5°C | 63.8% | 0hPa | 0V | 08:12:00 | 00:00:00 | 00:00:00 | |
| DL9RDZ-1 | 2026-09-01 12:44:15 | 63.98087 | -21.56033 | 94° | 40km/h | 6378m | -11.7m/s | -28.5°C | 65.2% | 0hPa | 0V | 08:12:00 | 00:00:00 | 00:00:00 | |
| DL9RDZ-1 | 2026-09-01 12:44:05 | 63.98095 | -21.56266 | 96° | 42km/h | 6496m | -12.8m/s | -29.5°C | 69.1% | 0hPa | 0V | 08:12:00 | 00:00:00 | 00:00:00 | |
| DL9RDZ-1 | 2026-09-01 12:43:55 | 63.98103 | -21.56501 | 95° | 42km/h | 6612m | -11.2m/s | -30.5°C | 71.3% | 0hPa | 0V | 08:12:00 | 00:00:00 | 00:00:00 | |
| DL9RDZ-1 | 2026-09-01 12:43:45 | 63.98113 | -21.56741 | 93° | 42km/h | 6726m | -12.8m/s | -31.5°C | 71.3% | 0hPa | 0V | 08:13:00 | 00:00:00 | 00:00:00 | |
| DL9RDZ-1 | 2026-09-01 12:43:34 | 63.98122 | -21.57004 | 97° | 42km/h | 6860m | -13.7m/s | -32.6°C | 73.1% | 0hPa | 0V | 08:13:00 | 00:00:00 | 00:00:00 | |
| DL9RDZ-1 | 2026-09-01 12:43:19 | 63.98132 | -21.57344 | 99° | 40km/h | 7044m | -13.7m/s | -34.0°C | 72.6% | 0hPa | 0V | 08:13:00 | 00:00:00 | 00:00:00 | |
| DL9RDZ-1 | 2026-09-01 12:43:08 | 63.98136 | -21.57602 | 94° | 42km/h | 7180m | -13.3m/s | -35.0°C | 69.8% | 0hPa | 0V | 08:13:00 | 00:00:00 | 00:00:00 | |
| DL9RDZ-1 | 2026-09-01 12:42:58 | 63.98140 | -21.57838 | 95° | 44km/h | 7307m | -13.0m/s | -36.1°C | 73.2% | 0hPa | 0V | 08:14:00 | 00:00:00 | 00:00:00 | |
| DL9RDZ-1 | 2026-09-01 12:42:48 | 63.98150 | -21.58083 | 96° | 40km/h | 7429m | -14.2m/s | -37.1°C | 73.0% | 0hPa | 0V | 08:14:00 | 00:00:00 | 00:00:00 | |
| DL9RDZ-1 | 2026-09-01 12:42:37 | 63.98165 | -21.58355 | 97° | 42km/h | 7576m | -14.1m/s | -38.2°C | 74.4% | 0hPa | 0V | 08:14:00 | 00:00:00 | 00:00:00 | |
| DL9RDZ-1 | 2026-09-01 12:42:27 | 63.98182 | -21.58603 | 103° | 42km/h | 7705m | -12.4m/s | -39.1°C | 77.4% | 0hPa | 0V | 08:14:00 | 00:00:00 | 00:00:00 | |
| DL9RDZ-1 | 2026-09-01 12:42:17 | 63.98208 | -21.58845 | 105° | 42km/h | 7827m | -14.1m/s | -39.8°C | 72.6% | 0hPa | 0V | 08:14:00 | 00:00:00 | 00:00:00 | |
| DL9RDZ-1 | 2026-09-01 12:42:06 | 63.98243 | -21.59108 | 108° | 42km/h | 7971m | -12.0m/s | -40.8°C | 72.1% | 0hPa | 0V | 08:14:00 | 00:00:00 | 00:00:00 | |
| DL9RDZ-1 | 2026-09-01 12:41:55 | 63.98286 | -21.59369 | 112° | 46km/h | 8121m | -13.9m/s | -41.7°C | 66.5% | 0hPa | 0V | 08:14:00 | 00:00:00 | 00:00:00 | |
| DL9RDZ-1 | 2026-09-01 12:41:45 | 63.98327 | -21.59619 | 112° | 44km/h | 8256m | -13.5m/s | -42.6°C | 62.7% | 0hPa | 0V | 08:14:00 | 00:00:00 | 00:00:00 | |
| DL9RDZ-1 | 2026-09-01 12:41:34 | 63.98377 | -21.59905 | 113° | 49km/h | 8402m | -14.1m/s | -43.8°C | 63.9% | 0hPa | 0V | 08:14:00 | 00:00:00 | 00:00:00 | |
| DL9RDZ-1 | 2026-09-01 12:41:12 | 63.98475 | -21.60515 | 111° | 51km/h | 8708m | -16.2m/s | -46.2°C | 59.5% | 0hPa | 0V | 08:15:00 | 00:00:00 | 00:00:00 | |
| DL9RDZ-1 | 2026-09-01 12:41:01 | 63.98519 | -21.60830 | 111° | 53km/h | 8868m | -13.7m/s | -47.6°C | 61.2% | 0hPa | 0V | 08:15:00 | 00:00:00 | 00:00:00 | |
| DL9RDZ-1 | 2026-09-01 12:40:50 | 63.98567 | -21.61160 | 110° | 57km/h | 9026m | -15.3m/s | -48.8°C | 61.2% | 0hPa | 0V | 08:15:00 | 00:00:00 | 00:00:00 | |
| DL9RDZ-1 | 2026-09-01 12:40:39 | 63.98617 | -21.61498 | 114° | 58km/h | 9185m | -14.2m/s | -49.8°C | 53.2% | 0hPa | 0V | 08:15:00 | 00:00:00 | 00:00:00 | |
| DL9RDZ-1 | 2026-09-01 12:40:28 | 63.98675 | -21.61847 | 110° | 58km/h | 9340m | -14.3m/s | -50.8°C | 53.6% | 0hPa | 0V | 08:15:00 | 00:00:00 | 00:00:00 | |
| DL9RDZ-1 | 2026-09-01 12:40:17 | 63.98734 | -21.62206 | 113° | 60km/h | 9498m | -15.5m/s | -52.0°C | 55.8% | 0hPa | 0V | 08:16:00 | 00:00:00 | 00:00:00 | |
| DL9RDZ-1 | 2026-09-01 12:40:07 | 63.98791 | -21.62537 | 114° | 66km/h | 9662m | -18.0m/s | -53.2°C | 59.0% | 0hPa | 0V | 08:16:00 | 00:00:00 | 00:00:00 | |
| DL9RDZ-1 | 2026-09-01 12:39:56 | 63.98854 | -21.62906 | 108° | 64km/h | 9851m | -17.5m/s | -54.6°C | 55.6% | 0hPa | 0V | 08:16:00 | 00:00:00 | 00:00:00 | |
| DL9RDZ-1 | 2026-09-01 12:39:46 | 63.98900 | -21.63260 | 107° | 66km/h | 10017m | -16.9m/s | -55.7°C | 47.0% | 0hPa | 0V | 08:16:00 | 00:00:00 | 00:00:00 | |
| DL9RDZ-1 | 2026-09-01 12:39:36 | 63.98936 | -21.63629 | 103° | 64km/h | 10170m | -13.2m/s | -56.5°C | 44.7% | 0hPa | 0V | 08:16:00 | 00:00:00 | 00:00:00 | |
| DL9RDZ-1 | 2026-09-01 12:39:26 | 63.98971 | -21.64028 | 103° | 66km/h | 10328m | -15.2m/s | -57.4°C | 41.8% | 0hPa | 0V | 08:17:00 | 00:00:00 | 00:00:00 | |
| DL9RDZ-1 | 2026-09-01 12:39:15 | 63.98997 | -21.64388 | 99° | 64km/h | 10474m | -14.3m/s | -58.0°C | 38.0% | 0hPa | 0V | 08:17:00 | 00:00:00 | 00:00:00 | |
| DL9RDZ-1 | 2026-09-01 12:39:05 | 63.99016 | -21.64757 | 96° | 68km/h | 10621m | -15.3m/s | -58.7°C | 34.5% | 0hPa | 0V | 08:17:00 | 00:00:00 | 00:00:00 | |
| DL9RDZ-1 | 2026-09-01 12:38:50 | 63.99044 | -21.65283 | 94° | 57km/h | 10857m | -17.2m/s | -58.6°C | 24.9% | 0hPa | 0V | 08:17:00 | 00:00:00 | 00:00:00 | |
| DL9RDZ-1 | 2026-09-01 12:38:40 | 63.99049 | -21.65611 | 93° | 60km/h | 11006m | -14.7m/s | -57.8°C | 13.2% | 0hPa | 0V | 08:18:00 | 00:00:00 | 00:00:00 | |
| DL9RDZ-1 | 2026-09-01 12:38:29 | 63.99063 | -21.65982 | 98° | 55km/h | 11165m | -14.6m/s | -53.4°C | 4.8% | 0hPa | 0V | 08:18:00 | 00:00:00 | 00:00:00 | |
| DL9RDZ-1 | 2026-09-01 12:38:18 | 63.99080 | -21.66303 | 94° | 47km/h | 11336m | -15.2m/s | -52.6°C | 3.1% | 0hPa | 0V | 08:18:00 | 00:00:00 | 00:00:00 | |
| DL9RDZ-1 | 2026-09-01 12:38:08 | 63.99082 | -21.66558 | 94° | 42km/h | 11491m | -14.3m/s | -50.9°C | 2.4% | 0hPa | 0V | 08:18:00 | 00:00:00 | 00:00:00 | |
| DL9RDZ-1 | 2026-09-01 12:37:57 | 63.99080 | -21.66858 | 90° | 57km/h | 11660m | -16.5m/s | -50.6°C | 2.0% | 0hPa | 0V | 08:18:00 | 00:00:00 | 00:00:00 | |
| DL9RDZ-1 | 2026-09-01 12:37:46 | 63.99093 | -21.67189 | 98° | 47km/h | 11839m | -15.7m/s | -49.3°C | 1.6% | 0hPa | 0V | 08:19:00 | 00:00:00 | 00:00:00 | |
| DL9RDZ-1 | 2026-09-01 12:37:36 | 63.99108 | -21.67468 | 99° | 44km/h | 12020m | -15.8m/s | -49.1°C | 1.5% | 0hPa | 0V | 08:19:00 | 00:00:00 | 00:00:00 | |
| DL9RDZ-1 | 2026-09-01 12:37:23 | 63.99118 | -21.67773 | 99° | 44km/h | 12206m | -16.9m/s | -48.8°C | 1.5% | 0hPa | 0V | 08:19:00 | 00:00:00 | 00:00:00 | |
| DL9RDZ-1 | 2026-09-01 12:37:09 | 63.99111 | -21.68138 | 92° | 49km/h | 12446m | -18.4m/s | -48.1°C | 1.3% | 0hPa | 0V | 08:19:00 | 00:00:00 | 00:00:00 | |
| DL9RDZ-1 | 2026-09-01 12:36:59 | 63.99115 | -21.68410 | 92° | 46km/h | 12622m | -16.4m/s | -47.6°C | 1.3% | 0hPa | 0V | 08:19:00 | 00:00:00 | 00:00:00 | |
| DL9RDZ-1 | 2026-09-01 12:36:48 | 63.99105 | -21.68703 | 84° | 53km/h | 12793m | -15.9m/s | -46.9°C | 1.2% | 0hPa | 0V | 08:19:00 | 00:00:00 | 00:00:00 | |
| DL9RDZ-1 | 2026-09-01 12:36:38 | 63.99091 | -21.68990 | 87° | 49km/h | 12956m | -17.4m/s | -46.7°C | 1.2% | 0hPa | 0V | 08:19:00 | 00:00:00 | 00:00:00 | |
| DL9RDZ-1 | 2026-09-01 12:36:24 | 63.99073 | -21.69377 | 83° | 46km/h | 13185m | -15.5m/s | -45.9°C | 1.1% | 0hPa | 0V | 08:19:00 | 00:00:00 | 00:00:00 | |
| DL9RDZ-1 | 2026-09-01 12:36:14 | 63.99055 | -21.69654 | 82° | 51km/h | 13340m | -15.8m/s | -46.2°C | 1.1% | 0hPa | 0V | 08:19:00 | 00:00:00 | 00:00:00 | |
| DL9RDZ-1 | 2026-09-01 12:36:04 | 63.99041 | -21.69951 | 83° | 46km/h | 13513m | -17.7m/s | -45.8°C | 1.0% | 0hPa | 0V | 08:20:00 | 00:00:00 | 00:00:00 | |
| DL9RDZ-1 | 2026-09-01 12:35:53 | 63.99026 | -21.70197 | 85° | 38km/h | 13689m | -17.1m/s | -46.0°C | 1.0% | 0hPa | 0V | 08:20:00 | 00:00:00 | 00:00:00 | |
| DL9RDZ-1 | 2026-09-01 12:35:43 | 63.99012 | -21.70423 | 84° | 46km/h | 13855m | -16.6m/s | -46.5°C | 1.1% | 0hPa | 0V | 08:20:00 | 00:00:00 | 00:00:00 | |
| DL9RDZ-1 | 2026-09-01 12:35:33 | 63.99012 | -21.70664 | 94° | 37km/h | 14022m | -18.5m/s | -46.7°C | 1.1% | 0hPa | 0V | 08:20:00 | 00:00:00 | 00:00:00 | |
| DL9RDZ-1 | 2026-09-01 12:35:23 | 63.99014 | -21.70856 | 85° | 33km/h | 14193m | -18.0m/s | -46.7°C | 1.1% | 0hPa | 0V | 08:20:00 | 00:00:00 | 00:00:00 | |
| DL9RDZ-1 | 2026-09-01 12:35:12 | 63.98986 | -21.71074 | 73° | 42km/h | 14382m | -20.4m/s | -46.7°C | 1.0% | 0hPa | 0V | 08:21:00 | 00:00:00 | 00:00:00 | |
| DL9RDZ-1 | 2026-09-01 12:35:02 | 63.98968 | -21.71340 | 92° | 49km/h | 14565m | -17.9m/s | -46.6°C | 1.1% | 0hPa | 0V | 08:21:00 | 00:00:00 | 00:00:00 | |
| DL9RDZ-1 | 2026-09-01 12:34:51 | 63.98977 | -21.71610 | 90° | 37km/h | 14765m | -19.2m/s | -46.7°C | 1.1% | 0hPa | 0V | 08:21:00 | 00:00:00 | 00:00:00 | |
| DL9RDZ-1 | 2026-09-01 12:34:40 | 63.98964 | -21.71844 | 81° | 38km/h | 14954m | -16.8m/s | -46.3°C | 1.0% | 0hPa | 0V | 08:21:00 | 00:00:00 | 00:00:00 | |
| DL9RDZ-1 | 2026-09-01 12:34:14 | 63.98919 | -21.72311 | 69° | 33km/h | 15435m | -20.1m/s | -46.7°C | 1.0% | 0hPa | 0V | 08:22:00 | 00:00:00 | 00:00:00 | |
| DL9RDZ-1 | 2026-09-01 12:34:04 | 63.98888 | -21.72506 | 76° | 42km/h | 15622m | -17.9m/s | -47.2°C | 1.0% | 0hPa | 0V | 08:22:00 | 00:00:00 | 00:00:00 | |
| DL9RDZ-1 | 2026-09-01 12:33:53 | 63.98877 | -21.72790 | 95° | 44km/h | 15812m | -17.6m/s | -46.3°C | 1.0% | 0hPa | 0V | 08:22:00 | 00:00:00 | 00:00:00 | |
| DL9RDZ-1 | 2026-09-01 12:33:43 | 63.98896 | -21.73029 | 101° | 29km/h | 16016m | -18.7m/s | -46.4°C | 1.0% | 0hPa | 0V | 08:22:00 | 00:00:00 | 00:00:00 | |
| DL9RDZ-1 | 2026-09-01 12:33:32 | 63.98889 | -21.73209 | 77° | 37km/h | 16215m | -19.2m/s | -46.5°C | 0.9% | 0hPa | 0V | 08:23:00 | 00:00:00 | 00:00:00 | |
| DL9RDZ-1 | 2026-09-01 12:33:13 | 63.98858 | -21.73549 | 74° | 31km/h | 16547m | -20.6m/s | -46.7°C | 1.0% | 0hPa | 0V | 08:23:00 | 00:00:00 | 00:00:00 | |
| DL9RDZ-1 | 2026-09-01 12:33:02 | 63.98834 | -21.73681 | 41° | 22km/h | 16757m | -18.7m/s | -45.5°C | 0.9% | 0hPa | 0V | 08:23:00 | 00:00:00 | 00:00:00 | |
| DL9RDZ-1 | 2026-09-01 12:32:52 | 63.98775 | -21.73789 | 47° | 33km/h | 16940m | -19.6m/s | -45.8°C | 0.9% | 0hPa | 0V | 08:23:00 | 00:00:00 | 00:00:00 | |
| DL9RDZ-1 | 2026-09-01 12:32:42 | 63.98722 | -21.73966 | 64° | 33km/h | 17140m | -16.9m/s | -46.9°C | 0.9% | 0hPa | 0V | 00:00:00 | 00:00:00 | 00:00:00 | |
| DL9RDZ-1 | 2026-09-01 12:31:44 | 63.98573 | -21.74902 | 54° | 31km/h | 18187m | -17.8m/s | -46.7°C | 0.9% | 0hPa | 0V | 00:00:00 | 00:00:00 | 00:00:00 | |
| DL9RDZ-1 | 2026-09-01 12:31:33 | 63.98527 | -21.75117 | 71° | 40km/h | 18395m | -19.4m/s | -46.7°C | 0.9% | 0hPa | 0V | 00:00:00 | 00:00:00 | 00:00:00 | |
| DL9RDZ-1 | 2026-09-01 12:31:13 | 63.98492 | -21.75486 | 84° | 27km/h | 18768m | -21.7m/s | -46.7°C | 0.9% | 0hPa | 0V | 00:00:00 | 00:00:00 | 00:00:00 | |
| DL9RDZ-1 | 2026-09-01 12:30:57 | 63.98492 | -21.75732 | 76° | 24km/h | 19089m | -22.7m/s | -47.8°C | 1.0% | 0hPa | 0V | 00:00:00 | 00:00:00 | 00:00:00 | |
| DL9RDZ-1 | 2026-09-01 12:30:48 | 63.98476 | -21.75821 | 51° | 15km/h | 19284m | -20.9m/s | -47.2°C | 0.9% | 0hPa | 0V | 00:00:00 | 00:00:00 | 00:00:00 | |
| DL9RDZ-1 | 2026-09-01 12:30:36 | 63.98443 | -21.75912 | 56° | 22km/h | 19536m | -21.3m/s | -47.2°C | 0.9% | 0hPa | 0V | 00:00:00 | 00:00:00 | 00:00:00 | |
| DL9RDZ-1 | 2026-09-01 12:29:17 | 63.98162 | -21.76838 | 68° | 33km/h | 21167m | -22.0m/s | -47.6°C | 0.9% | 0hPa | 0V | 00:00:00 | 00:00:00 | 00:00:00 | |
| DL9RDZ-1 | 2026-09-01 12:29:00 | 63.98125 | -21.77189 | 89° | 33km/h | 21536m | -20.7m/s | -47.8°C | 0.9% | 0hPa | 0V | 00:00:00 | 00:00:00 | 00:00:00 | |
| DL9RDZ-1 | 2026-09-01 12:27:57 | 63.97921 | -21.77857 | 74° | 27km/h | 22925m | -23.0m/s | -48.1°C | 0.9% | 0hPa | 0V | 00:00:00 | 00:00:00 | 00:00:00 | |
| DL9RDZ-1 | 2026-09-01 12:27:46 | 63.97890 | -21.77997 | 52° | 22km/h | 23168m | -24.2m/s | -47.4°C | 0.8% | 0hPa | 0V | 00:00:00 | 00:00:00 | 00:00:00 | |
| DL9RDZ-1 | 2026-09-01 12:25:47 | 63.97392 | -21.79059 | 334° | 11km/h | 26157m | -12.9m/s | -46.6°C | 0.8% | 0hPa | 0V | 00:00:00 | 00:00:00 | 00:00:00 | |
| DL9RDZ-1 | 2026-09-01 12:25:35 | 63.97346 | -21.79084 | 37° | 18km/h | 26282m | 6.9m/s | -46.3°C | 0.8% | 0hPa | 0V | 00:00:00 | 00:00:00 | 00:00:00 | |
| DL9RDZ-1 | 2026-09-01 12:25:25 | 63.97297 | -21.79108 | 348° | 22km/h | 26213m | 7.0m/s | -46.3°C | 0.8% | 0hPa | 0V | 00:00:00 | 00:00:00 | 00:00:00 | |
| DL9RDZ-1 | 2026-09-01 12:23:30 | 63.97158 | -21.80032 | 35° | 31km/h | 25470m | 5.6m/s | -46.7°C | 0.9% | 0hPa | 0V | 00:00:00 | 00:00:00 | 00:00:00 | |
| DL9RDZ-1 | 2026-09-01 12:19:58 | 63.96070 | -21.81979 | 36° | 18km/h | 24153m | 5.8m/s | -45.9°C | 0.8% | 0hPa | 0V | 00:00:00 | 00:00:00 | 00:00:00 | |
| DL9RDZ-1 | 2026-09-01 12:19:43 | 63.95996 | -21.82124 | 43° | 31km/h | 24057m | 4.8m/s | -46.4°C | 0.8% | 0hPa | 0V | 00:00:00 | 00:00:00 | 00:00:00 | |
| DL9RDZ-1 | 2026-09-01 12:19:32 | 63.95938 | -21.82200 | 16° | 20km/h | 23996m | 5.5m/s | -46.8°C | 0.8% | 0hPa | 0V | 00:00:00 | 00:00:00 | 00:00:00 | |
| DL9RDZ-1 | 2026-09-01 12:19:21 | 63.95893 | -21.82270 | 40° | 20km/h | 23930m | 4.7m/s | -46.9°C | 0.9% | 0hPa | 0V | 00:00:00 | 00:00:00 | 00:00:00 | |
| DL9RDZ-1 | 2026-09-01 12:17:13 | 63.95390 | -21.83533 | 52° | 22km/h | 23155m | 5.1m/s | -47.2°C | 0.9% | 0hPa | 0V | 00:00:00 | 00:00:00 | 00:00:00 | |
| DL9RDZ-1 | 2026-09-01 12:17:00 | 63.95344 | -21.83683 | 66° | 18km/h | 23072m | 6.8m/s | -47.3°C | 0.9% | 0hPa | 0V | 00:00:00 | 00:00:00 | 00:00:00 | |
| DL9RDZ-1 | 2026-09-01 12:16:49 | 63.95329 | -21.83800 | 82° | 27km/h | 23011m | 6.3m/s | -47.3°C | 0.9% | 0hPa | 0V | 00:00:00 | 00:00:00 | 00:00:00 | |
| DL9RDZ-1 | 2026-09-01 12:16:39 | 63.95308 | -21.83967 | 70° | 31km/h | 22947m | 5.5m/s | -47.8°C | 0.9% | 0hPa | 0V | 00:00:00 | 00:00:00 | 00:00:00 | |
| DL9RDZ-1 | 2026-09-01 12:16:28 | 63.95279 | -21.84134 | 76° | 35km/h | 22889m | 6.6m/s | -47.9°C | 1.0% | 0hPa | 0V | 00:00:00 | 00:00:00 | 00:00:00 | |
| DL9RDZ-1 | 2026-09-01 12:16:17 | 63.95246 | -21.84310 | 54° | 26km/h | 22823m | 5.9m/s | -47.5°C | 0.9% | 0hPa | 0V | 00:00:00 | 00:00:00 | 00:00:00 | |
| DL9RDZ-1 | 2026-09-01 12:16:06 | 63.95209 | -21.84451 | 44° | 24km/h | 22757m | 6.8m/s | -47.7°C | 0.9% | 0hPa | 0V | 00:00:00 | 00:00:00 | 00:00:00 | |
| DL9RDZ-1 | 2026-09-01 12:15:56 | 63.95152 | -21.84542 | 39° | 27km/h | 22690m | 5.2m/s | -47.9°C | 1.0% | 0hPa | 0V | 00:00:00 | 00:00:00 | 00:00:00 | |
| DL9RDZ-1 | 2026-09-01 12:15:44 | 63.95103 | -21.84624 | 35° | 22km/h | 22627m | 6.0m/s | -47.7°C | 0.9% | 0hPa | 0V | 00:00:00 | 00:00:00 | 00:00:00 | |
| DL9RDZ-1 | 2026-09-01 12:15:34 | 63.95077 | -21.84702 | 70° | 16km/h | 22569m | 4.9m/s | -47.7°C | 0.9% | 0hPa | 0V | 00:00:00 | 00:00:00 | 00:00:00 | |
| DL9RDZ-1 | 2026-09-01 12:15:24 | 63.95056 | -21.84792 | 91° | 16km/h | 22512m | 5.3m/s | -47.5°C | 1.0% | 0hPa | 0V | 00:00:00 | 00:00:00 | 00:00:00 | |
| DL9RDZ-1 | 2026-09-01 12:15:14 | 63.95035 | -21.84923 | 69° | 26km/h | 22445m | 7.7m/s | -47.6°C | 0.9% | 0hPa | 0V | 00:00:00 | 00:00:00 | 00:00:00 | |
| DL9RDZ-1 | 2026-09-01 12:15:03 | 63.95016 | -21.85068 | 58° | 27km/h | 22385m | 6.8m/s | -47.5°C | 0.9% | 0hPa | 0V | 00:00:00 | 00:00:00 | 00:00:00 | |
| DL9RDZ-1 | 2026-09-01 12:14:52 | 63.94981 | -21.85232 | 60° | 27km/h | 22321m | 6.8m/s | -47.8°C | 1.0% | 0hPa | 0V | 00:00:00 | 00:00:00 | 00:00:00 | |
| DL9RDZ-1 | 2026-09-01 12:14:41 | 63.94931 | -21.85431 | 65° | 42km/h | 22259m | 6.1m/s | -47.8°C | 0.9% | 0hPa | 0V | 00:00:00 | 00:00:00 | 00:00:00 | |
| DL9RDZ-1 | 2026-09-01 12:14:28 | 63.94856 | -21.85672 | 63° | 37km/h | 22181m | 5.9m/s | -47.7°C | 0.9% | 0hPa | 0V | 00:00:00 | 00:00:00 | 00:00:00 | |
| DL9RDZ-1 | 2026-09-01 12:13:12 | 63.94555 | -21.86147 | 94° | 22km/h | 21730m | 5.3m/s | -47.9°C | 1.0% | 0hPa | 0V | 00:00:00 | 00:00:00 | 00:00:00 | |
| DL9RDZ-1 | 2026-09-01 12:12:30 | 63.94516 | -21.86855 | 84° | 40km/h | 21480m | 6.2m/s | -47.9°C | 1.0% | 0hPa | 0V | 00:00:00 | 00:00:00 | 00:00:00 | |
| DL9RDZ-1 | 2026-09-01 12:12:18 | 63.94492 | -21.87118 | 82° | 40km/h | 21415m | 5.5m/s | -47.7°C | 1.0% | 0hPa | 0V | 00:00:00 | 00:00:00 | 00:00:00 | |
| DL9RDZ-1 | 2026-09-01 12:11:56 | 63.94430 | -21.87583 | 74° | 40km/h | 21290m | 5.9m/s | -47.5°C | 1.0% | 0hPa | 0V | 00:00:00 | 00:00:00 | 00:00:00 | |
| DL9RDZ-1 | 2026-09-01 12:11:44 | 63.94399 | -21.87804 | 67° | 31km/h | 21220m | 5.4m/s | -47.3°C | 1.0% | 0hPa | 0V | 00:00:00 | 00:00:00 | 00:00:00 | |
| DL9RDZ-1 | 2026-09-01 12:11:34 | 63.94360 | -21.88002 | 67° | 35km/h | 21157m | 3.3m/s | -47.2°C | 1.0% | 0hPa | 0V | 00:00:00 | 00:00:00 | 00:00:00 | |
| DL9RDZ-1 | 2026-09-01 12:10:23 | 63.94115 | -21.89136 | 56° | 24km/h | 20770m | 5.8m/s | -47.6°C | 1.0% | 0hPa | 0V | 00:00:00 | 00:00:00 | 00:00:00 | |
| DL9RDZ-1 | 2026-09-01 12:10:13 | 63.94056 | -21.89277 | 41° | 27km/h | 20717m | 5.8m/s | -47.9°C | 1.0% | 0hPa | 0V | 00:00:00 | 00:00:00 | 00:00:00 | |
| DL9RDZ-1 | 2026-09-01 12:10:02 | 63.94000 | -21.89380 | 48° | 33km/h | 20658m | 6.4m/s | -48.1°C | 1.0% | 0hPa | 0V | 00:00:00 | 00:00:00 | 00:00:00 | |
| DL9RDZ-1 | 2026-09-01 12:09:51 | 63.93954 | -21.89458 | 37° | 26km/h | 20600m | 5.9m/s | -48.3°C | 1.0% | 0hPa | 0V | 00:00:00 | 00:00:00 | 00:00:00 | |
| DL9RDZ-1 | 2026-09-01 12:09:40 | 63.93924 | -21.89533 | 40° | 16km/h | 20539m | 5.9m/s | -48.4°C | 1.0% | 0hPa | 0V | 00:00:00 | 00:00:00 | 00:00:00 | |
| DL9RDZ-1 | 2026-09-01 12:09:29 | 63.93896 | -21.89580 | 113° | 7km/h | 20480m | 5.5m/s | -48.3°C | 1.0% | 0hPa | 0V | 00:00:00 | 00:00:00 | 00:00:00 | |
| DL9RDZ-1 | 2026-09-01 12:09:18 | 63.93900 | -21.89639 | 111° | 16km/h | 20420m | 6.5m/s | -48.3°C | 1.0% | 0hPa | 0V | 00:00:00 | 00:00:00 | 00:00:00 | |
| DL9RDZ-1 | 2026-09-01 12:09:08 | 63.93904 | -21.89723 | 96° | 16km/h | 20363m | 4.1m/s | -48.4°C | 1.1% | 0hPa | 0V | 00:00:00 | 00:00:00 | 00:00:00 | |
| DL9RDZ-1 | 2026-09-01 12:08:57 | 63.93899 | -21.89835 | 82° | 24km/h | 20305m | 4.9m/s | -48.3°C | 1.1% | 0hPa | 0V | 00:00:00 | 00:00:00 | 00:00:00 | |
| DL9RDZ-1 | 2026-09-01 12:08:47 | 63.93886 | -21.89960 | 77° | 27km/h | 20246m | 3.6m/s | -48.2°C | 1.0% | 0hPa | 0V | 00:00:00 | 00:00:00 | 00:00:00 | |
| DL9RDZ-1 | 2026-09-01 12:08:37 | 63.93859 | -21.90092 | 66° | 29km/h | 20189m | 4.1m/s | -48.0°C | 1.0% | 0hPa | 0V | 00:00:00 | 00:00:00 | 00:00:00 | |
| DL9RDZ-1 | 2026-09-01 12:08:26 | 63.93811 | -21.90240 | 56° | 27km/h | 20126m | 6.3m/s | -48.0°C | 1.0% | 0hPa | 0V | 00:00:00 | 00:00:00 | 00:00:00 | |
| DL9RDZ-1 | 2026-09-01 12:08:18 | 63.93750 | -21.90388 | 45° | 29km/h | 20068m | 4.7m/s | -48.2°C | 1.1% | 0hPa | 0V | 00:00:00 | 00:00:00 | 00:00:00 | |
| DL9RDZ-1 | 2026-09-01 12:08:07 | 63.93699 | -21.90493 | 50° | 29km/h | 20009m | 5.2m/s | -48.1°C | 1.1% | 0hPa | 0V | 00:00:00 | 00:00:00 | 00:00:00 | |
| DL9RDZ-1 | 2026-09-01 12:07:55 | 63.93646 | -21.90598 | 29° | 29km/h | 19944m | 6.3m/s | -47.9°C | 1.1% | 0hPa | 0V | 00:00:00 | 00:00:00 | 00:00:00 | |
| DL9RDZ-1 | 2026-09-01 12:07:45 | 63.93590 | -21.90690 | 29° | 26km/h | 19882m | 6.3m/s | -47.7°C | 1.0% | 0hPa | 0V | 00:00:00 | 00:00:00 | 00:00:00 | |
| DL9RDZ-1 | 2026-09-01 12:07:34 | 63.93541 | -21.90762 | 44° | 22km/h | 19818m | 7.0m/s | -47.5°C | 1.1% | 0hPa | 0V | 00:00:00 | 00:00:00 | 00:00:00 | |
| DL9RDZ-1 | 2026-09-01 12:07:22 | 63.93501 | -21.90846 | 32° | 20km/h | 19754m | 6.5m/s | -47.3°C | 1.0% | 0hPa | 0V | 00:00:00 | 00:00:00 | 00:00:00 | |
| DL9RDZ-1 | 2026-09-01 12:07:11 | 63.93459 | -21.90915 | 42° | 13km/h | 19684m | 5.1m/s | -47.1°C | 1.0% | 0hPa | 0V | 00:00:00 | 00:00:00 | 00:00:00 | |
| DL9RDZ-1 | 2026-09-01 12:07:00 | 63.93430 | -21.90981 | 50° | 24km/h | 19619m | 6.6m/s | -46.7°C | 1.0% | 0hPa | 0V | 00:00:00 | 00:00:00 | 00:00:00 | |
| DL9RDZ-1 | 2026-09-01 12:06:49 | 63.93394 | -21.91062 | 48° | 18km/h | 19555m | 5.6m/s | -46.4°C | 1.0% | 0hPa | 0V | 00:00:00 | 00:00:00 | 00:00:00 | |
| DL9RDZ-1 | 2026-09-01 12:06:37 | 63.93359 | -21.91166 | 68° | 18km/h | 19494m | 3.8m/s | -46.4°C | 1.0% | 0hPa | 0V | 00:00:00 | 00:00:00 | 00:00:00 | |
| DL9RDZ-1 | 2026-09-01 12:06:27 | 63.93331 | -21.91250 | 53° | 22km/h | 19438m | 3.9m/s | -46.3°C | 1.0% | 0hPa | 0V | 00:00:00 | 00:00:00 | 00:00:00 | |
| DL9RDZ-1 | 2026-09-01 12:06:17 | 63.93301 | -21.91339 | 52° | 20km/h | 19383m | 5.7m/s | -46.3°C | 1.0% | 0hPa | 0V | 00:00:00 | 00:00:00 | 00:00:00 | |
| DL9RDZ-1 | 2026-09-01 12:06:07 | 63.93267 | -21.91420 | 56° | 22km/h | 19325m | 5.1m/s | -46.7°C | 1.0% | 0hPa | 0V | 00:00:00 | 00:00:00 | 00:00:00 | |
| DL9RDZ-1 | 2026-09-01 12:05:56 | 63.93237 | -21.91499 | 34° | 18km/h | 19263m | 5.9m/s | -47.0°C | 1.0% | 0hPa | 0V | 00:00:00 | 00:00:00 | 00:00:00 | |
| DL9RDZ-1 | 2026-09-01 12:05:46 | 63.93221 | -21.91591 | 74° | 15km/h | 19207m | 6.2m/s | -47.4°C | 1.0% | 0hPa | 0V | 00:00:00 | 00:00:00 | 00:00:00 | |
| DL9RDZ-1 | 2026-09-01 12:05:36 | 63.93202 | -21.91682 | 78° | 16km/h | 19155m | 5.2m/s | -47.4°C | 1.1% | 0hPa | 0V | 00:00:00 | 00:00:00 | 00:00:00 | |
| DL9RDZ-1 | 2026-09-01 12:05:26 | 63.93183 | -21.91775 | 69° | 26km/h | 19099m | 6.5m/s | -47.3°C | 1.1% | 0hPa | 0V | 00:00:00 | 00:00:00 | 00:00:00 | |
| DL9RDZ-1 | 2026-09-01 12:05:16 | 63.93169 | -21.91922 | 82° | 22km/h | 19040m | 5.6m/s | -47.3°C | 1.1% | 0hPa | 0V | 00:00:00 | 00:00:00 | 00:00:00 | |
| DL9RDZ-1 | 2026-09-01 12:05:04 | 63.93177 | -21.92097 | 108° | 26km/h | 18978m | 4.8m/s | -47.1°C | 1.0% | 0hPa | 0V | 00:00:00 | 00:00:00 | 00:00:00 | |
| DL9RDZ-1 | 2026-09-01 12:04:53 | 63.93192 | -21.92263 | 94° | 31km/h | 18918m | 6.5m/s | -47.0°C | 1.1% | 0hPa | 0V | 00:00:00 | 00:00:00 | 00:00:00 | |
| DL9RDZ-1 | 2026-09-01 12:04:43 | 63.93196 | -21.92442 | 92° | 29km/h | 18867m | 5.7m/s | -46.7°C | 1.1% | 0hPa | 0V | 00:00:00 | 00:00:00 | 00:00:00 | |
| DL9RDZ-1 | 2026-09-01 12:04:33 | 63.93194 | -21.92612 | 84° | 29km/h | 18813m | 5.9m/s | -46.4°C | 1.0% | 0hPa | 0V | 00:00:00 | 00:00:00 | 00:00:00 | |
| DL9RDZ-1 | 2026-09-01 12:04:23 | 63.93179 | -21.92804 | 82° | 35km/h | 18754m | 4.9m/s | -46.0°C | 1.0% | 0hPa | 0V | 00:00:00 | 00:00:00 | 00:00:00 | |
| DL9RDZ-1 | 2026-09-01 12:04:11 | 63.93169 | -21.93006 | 82° | 33km/h | 18698m | 5.5m/s | -45.7°C | 1.0% | 0hPa | 0V | 00:00:00 | 00:00:00 | 00:00:00 | |
| DL9RDZ-1 | 2026-09-01 12:04:00 | 63.93152 | -21.93194 | 75° | 26km/h | 18638m | 5.2m/s | -45.6°C | 1.0% | 0hPa | 0V | 00:00:00 | 00:00:00 | 00:00:00 | |
| DL9RDZ-1 | 2026-09-01 12:03:49 | 63.93140 | -21.93363 | 70° | 24km/h | 18579m | 5.4m/s | -45.9°C | 1.0% | 0hPa | 0V | 00:00:00 | 00:00:00 | 00:00:00 | |
| DL9RDZ-1 | 2026-09-01 12:03:40 | 63.93107 | -21.93510 | 78° | 33km/h | 18525m | 5.6m/s | -46.1°C | 1.0% | 0hPa | 0V | 00:00:00 | 00:00:00 | 00:00:00 | |
| DL9RDZ-1 | 2026-09-01 12:03:28 | 63.93082 | -21.93724 | 64° | 37km/h | 18467m | 5.3m/s | -46.2°C | 1.0% | 0hPa | 0V | 00:00:00 | 00:00:00 | 00:00:00 | |
| DL9RDZ-1 | 2026-09-01 12:03:17 | 63.93047 | -21.93951 | 63° | 42km/h | 18409m | 5.5m/s | -46.7°C | 1.0% | 0hPa | 0V | 00:00:00 | 00:00:00 | 00:00:00 | |
| DL9RDZ-1 | 2026-09-01 12:03:07 | 63.93008 | -21.94156 | 71° | 40km/h | 18356m | 4.5m/s | -46.6°C | 1.0% | 0hPa | 0V | 00:00:00 | 00:00:00 | 00:00:00 | |
| DL9RDZ-1 | 2026-09-01 12:02:46 | 63.92899 | -21.94521 | 50° | 33km/h | 18244m | 6.1m/s | -46.9°C | 1.0% | 0hPa | 0V | 00:00:00 | 00:00:00 | 00:00:00 | |
| DL9RDZ-1 | 2026-09-01 12:02:30 | 63.92817 | -21.94701 | 26° | 18km/h | 18156m | 5.2m/s | -46.8°C | 1.0% | 0hPa | 0V | 00:00:00 | 00:00:00 | 00:00:00 | |
| DL9RDZ-1 | 2026-09-01 12:02:19 | 63.92792 | -21.94807 | 67° | 11km/h | 18097m | 5.8m/s | -46.7°C | 1.0% | 0hPa | 0V | 00:00:00 | 00:00:00 | 00:00:00 | |
| DL9RDZ-1 | 2026-09-01 12:02:09 | 63.92790 | -21.94882 | 102° | 20km/h | 18037m | 4.7m/s | -46.9°C | 1.1% | 0hPa | 0V | 00:00:00 | 00:00:00 | 00:00:00 | |
| DL9RDZ-1 | 2026-09-01 12:01:59 | 63.92797 | -21.94991 | 96° | 16km/h | 17983m | 4.3m/s | -47.2°C | 1.0% | 0hPa | 0V | 00:00:00 | 00:00:00 | 00:00:00 | |
| DL9RDZ-1 | 2026-09-01 12:01:48 | 63.92805 | -21.95127 | 96° | 31km/h | 17930m | 5.5m/s | -47.1°C | 1.1% | 0hPa | 0V | 00:00:00 | 00:00:00 | 00:00:00 | |
| DL9RDZ-1 | 2026-09-01 12:01:38 | 63.92812 | -21.95309 | 89° | 31km/h | 17875m | 5.9m/s | -47.1°C | 1.0% | 0hPa | 0V | 00:00:00 | 00:00:00 | 00:00:00 | |
| DL9RDZ-1 | 2026-09-01 12:01:27 | 63.92803 | -21.95527 | 87° | 38km/h | 17814m | 6.1m/s | -47.2°C | 1.1% | 0hPa | 0V | 00:00:00 | 00:00:00 | 00:00:00 | |
| DL9RDZ-1 | 2026-09-01 12:01:17 | 63.92764 | -21.95719 | 64° | 35km/h | 17759m | 6.0m/s | -47.0°C | 1.1% | 0hPa | 0V | 00:00:00 | 00:00:00 | 00:00:00 | |
| DL9RDZ-1 | 2026-09-01 12:01:06 | 63.92735 | -21.95918 | 68° | 33km/h | 17700m | 4.5m/s | -47.1°C | 1.1% | 0hPa | 0V | 00:00:00 | 00:00:00 | 00:00:00 | |
| DL9RDZ-1 | 2026-09-01 12:00:56 | 63.92718 | -21.96076 | 78° | 24km/h | 17648m | 4.8m/s | -47.5°C | 1.1% | 0hPa | 0V | 00:00:00 | 00:00:00 | 00:00:00 | |
| DL9RDZ-1 | 2026-09-01 12:00:45 | 63.92686 | -21.96286 | 69° | 35km/h | 17588m | 5.7m/s | -47.7°C | 1.1% | 0hPa | 0V | 00:00:00 | 00:00:00 | 00:00:00 | |
| DL9RDZ-1 | 2026-09-01 12:00:36 | 63.92651 | -21.96505 | 61° | 47km/h | 17533m | 4.9m/s | -47.7°C | 1.1% | 0hPa | 0V | 00:00:00 | 00:00:00 | 00:00:00 | |
| DL9RDZ-1 | 2026-09-01 12:00:15 | 63.92548 | -21.96906 | 58° | 31km/h | 17424m | 5.6m/s | -47.3°C | 1.1% | 0hPa | 0V | 00:00:00 | 00:00:00 | 00:00:00 | |
| DL9RDZ-1 | 2026-09-01 12:00:04 | 63.92505 | -21.97080 | 63° | 26km/h | 17368m | 4.7m/s | -47.0°C | 1.1% | 0hPa | 0V | 00:00:00 | 00:00:00 | 00:00:00 | |
| DL9RDZ-1 | 2026-09-01 11:59:52 | 63.92472 | -21.97230 | 73° | 24km/h | 17311m | 4.7m/s | -47.0°C | 1.1% | 0hPa | 0V | 00:00:00 | 00:00:00 | 00:00:00 | |
| DL9RDZ-1 | 2026-09-01 11:59:42 | 63.92443 | -21.97397 | 74° | 31km/h | 17250m | 4.3m/s | -46.8°C | 1.1% | 0hPa | 0V | 00:00:00 | 00:00:00 | 00:00:00 | |
| DL9RDZ-1 | 2026-09-01 11:59:31 | 63.92416 | -21.97564 | 66° | 31km/h | 17192m | 5.7m/s | -46.7°C | 1.1% | 0hPa | 0V | 00:00:00 | 00:00:00 | 00:00:00 | |
| DL9RDZ-1 | 2026-09-01 11:59:20 | 63.92392 | -21.97748 | 72° | 37km/h | 17139m | 5.9m/s | -46.4°C | 1.1% | 0hPa | 0V | 00:00:00 | 00:00:00 | 00:00:00 | |
| DL9RDZ-1 | 2026-09-01 11:58:58 | 63.92310 | -21.98111 | 58° | 29km/h | 17020m | 4.7m/s | -46.0°C | 1.0% | 0hPa | 0V | 00:00:00 | 00:00:00 | 00:00:00 | |
| DL9RDZ-1 | 2026-09-01 11:58:47 | 63.92251 | -21.98258 | 43° | 37km/h | 16961m | 4.7m/s | -46.1°C | 1.0% | 0hPa | 0V | 00:00:00 | 00:00:00 | 00:00:00 | |
| DL9RDZ-1 | 2026-09-01 11:58:37 | 63.92204 | -21.98382 | 44° | 29km/h | 16899m | 4.3m/s | -46.5°C | 1.0% | 0hPa | 0V | 00:00:00 | 00:00:00 | 00:00:00 | |
| DL9RDZ-1 | 2026-09-01 11:58:25 | 63.92179 | -21.98490 | 82° | 20km/h | 16841m | 5.8m/s | -46.6°C | 1.1% | 0hPa | 0V | 00:00:00 | 00:00:00 | 00:00:00 | |
| DL9RDZ-1 | 2026-09-01 11:58:16 | 63.92163 | -21.98613 | 91° | 22km/h | 16789m | 5.1m/s | -46.7°C | 1.1% | 0hPa | 0V | 00:00:00 | 00:00:00 | 00:00:00 | |
| DL9RDZ-1 | 2026-09-01 11:58:05 | 63.92157 | -21.98770 | 85° | 27km/h | 16731m | 5.7m/s | -47.0°C | 1.1% | 0hPa | 0V | 00:00:00 | 00:00:00 | 00:00:00 | |
| DL9RDZ-1 | 2026-09-01 11:57:54 | 63.92136 | -21.98942 | 61° | 31km/h | 16671m | 4.9m/s | -47.4°C | 1.2% | 0hPa | 0V | 00:00:00 | 00:00:00 | 00:00:00 | |
| DL9RDZ-1 | 2026-09-01 11:57:43 | 63.92094 | -21.99099 | 67° | 29km/h | 16609m | 6.3m/s | -47.4°C | 1.1% | 0hPa | 0V | 00:00:00 | 00:00:00 | 00:00:00 | |
| DL9RDZ-1 | 2026-09-01 11:57:33 | 63.92072 | -21.99235 | 73° | 27km/h | 16557m | 4.6m/s | -47.2°C | 1.2% | 0hPa | 0V | 00:00:00 | 00:00:00 | 00:00:00 | |
| DL9RDZ-1 | 2026-09-01 11:56:58 | 63.92029 | -21.99858 | 75° | 46km/h | 16378m | 5.4m/s | -46.7°C | 1.1% | 0hPa | 0V | 00:00:00 | 00:00:00 | 00:00:00 | |
| DL9RDZ-1 | 2026-09-01 11:56:48 | 63.92015 | -22.00068 | 79° | 33km/h | 16323m | 5.4m/s | -46.7°C | 1.1% | 0hPa | 0V | 00:00:00 | 00:00:00 | 00:00:00 | |
| DL9RDZ-1 | 2026-09-01 11:56:37 | 63.91991 | -22.00281 | 80° | 35km/h | 16264m | 4.9m/s | -46.7°C | 1.1% | 0hPa | 0V | 00:00:00 | 00:00:00 | 00:00:00 | |
| DL9RDZ-1 | 2026-09-01 11:56:25 | 63.91977 | -22.00458 | 81° | 29km/h | 16208m | 5.2m/s | -46.5°C | 1.2% | 0hPa | 0V | 00:00:00 | 00:00:00 | 00:00:00 | |
| DL9RDZ-1 | 2026-09-01 11:56:15 | 63.91971 | -22.00608 | 87° | 31km/h | 16157m | 4.6m/s | -46.4°C | 1.1% | 0hPa | 0V | 00:00:00 | 00:00:00 | 00:00:00 | |
| DL9RDZ-1 | 2026-09-01 11:56:05 | 63.91970 | -22.00782 | 96° | 27km/h | 16102m | 4.9m/s | -46.2°C | 1.1% | 0hPa | 0V | 00:00:00 | 00:00:00 | 00:00:00 | |
| DL9RDZ-1 | 2026-09-01 11:55:54 | 63.91984 | -22.00955 | 106° | 37km/h | 16043m | 4.1m/s | -46.0°C | 1.1% | 0hPa | 0V | 00:00:00 | 00:00:00 | 00:00:00 | |
| DL9RDZ-1 | 2026-09-01 11:55:43 | 63.92002 | -22.01184 | 96° | 37km/h | 15985m | 4.2m/s | -45.7°C | 1.1% | 0hPa | 0V | 00:00:00 | 00:00:00 | 00:00:00 | |
| DL9RDZ-1 | 2026-09-01 11:55:32 | 63.92019 | -22.01427 | 91° | 42km/h | 15929m | 6.1m/s | -45.7°C | 1.1% | 0hPa | 0V | 00:00:00 | 00:00:00 | 00:00:00 | |
| DL9RDZ-1 | 2026-09-01 11:55:22 | 63.92024 | -22.01669 | 103° | 46km/h | 15877m | 5.4m/s | -45.7°C | 1.1% | 0hPa | 0V | 00:00:00 | 00:00:00 | 00:00:00 | |
| DL9RDZ-1 | 2026-09-01 11:55:11 | 63.92035 | -22.01939 | 93° | 47km/h | 15826m | 4.5m/s | -45.7°C | 1.1% | 0hPa | 0V | 00:00:00 | 00:00:00 | 00:00:00 | |
| DL9RDZ-1 | 2026-09-01 11:55:01 | 63.92037 | -22.02264 | 89° | 49km/h | 15772m | 6.1m/s | -45.9°C | 1.1% | 0hPa | 0V | 00:00:00 | 00:00:00 | 00:00:00 | |
| DL9RDZ-1 | 2026-09-01 11:54:49 | 63.92012 | -22.02579 | 79° | 53km/h | 15713m | 5.7m/s | -46.0°C | 1.1% | 0hPa | 0V | 00:00:00 | 00:00:00 | 00:00:00 | |
| DL9RDZ-1 | 2026-09-01 11:54:38 | 63.91970 | -22.02889 | 71° | 53km/h | 15654m | 4.9m/s | -46.1°C | 1.1% | 0hPa | 0V | 00:00:00 | 00:00:00 | 00:00:00 | |
| DL9RDZ-1 | 2026-09-01 11:54:27 | 63.91940 | -22.03172 | 77° | 44km/h | 15598m | 4.9m/s | -46.3°C | 1.1% | 0hPa | 0V | 00:00:00 | 00:00:00 | 00:00:00 | |
| DL9RDZ-1 | 2026-09-01 11:54:17 | 63.91896 | -22.03413 | 73° | 42km/h | 15548m | 4.2m/s | -46.2°C | 1.1% | 0hPa | 0V | 00:00:00 | 00:00:00 | 00:00:00 | |
| DL9RDZ-1 | 2026-09-01 11:54:07 | 63.91858 | -22.03636 | 62° | 40km/h | 15492m | 4.3m/s | -46.2°C | 1.2% | 0hPa | 0V | 00:00:00 | 00:00:00 | 00:00:00 | |
| DL9RDZ-1 | 2026-09-01 11:53:56 | 63.91831 | -22.03805 | 68° | 35km/h | 15439m | 6.1m/s | -46.2°C | 1.2% | 0hPa | 0V | 00:00:00 | 00:00:00 | 00:00:00 | |
| DL9RDZ-1 | 2026-09-01 11:53:46 | 63.91795 | -22.03979 | 66° | 29km/h | 15388m | 5.5m/s | -46.0°C | 1.2% | 0hPa | 0V | 00:00:00 | 00:00:00 | 00:00:00 | |
| DL9RDZ-1 | 2026-09-01 11:53:36 | 63.91758 | -22.04159 | 69° | 24km/h | 15328m | 6.4m/s | -45.8°C | 1.1% | 0hPa | 0V | 00:00:00 | 00:00:00 | 00:00:00 | |
| DL9RDZ-1 | 2026-09-01 11:53:24 | 63.91727 | -22.04313 | 63° | 29km/h | 15268m | 5.3m/s | -45.7°C | 1.1% | 0hPa | 0V | 00:00:00 | 00:00:00 | 00:00:00 | |
| DL9RDZ-1 | 2026-09-01 11:53:14 | 63.91708 | -22.04462 | 74° | 31km/h | 15213m | 4.2m/s | -45.5°C | 1.1% | 0hPa | 0V | 00:00:00 | 00:00:00 | 00:00:00 | |
| DL9RDZ-1 | 2026-09-01 11:53:03 | 63.91694 | -22.04626 | 80° | 31km/h | 15155m | 5.8m/s | -45.7°C | 1.1% | 0hPa | 0V | 00:00:00 | 00:00:00 | 00:00:00 | |
| DL9RDZ-1 | 2026-09-01 11:52:52 | 63.91678 | -22.04812 | 71° | 31km/h | 15097m | 4.7m/s | -45.9°C | 1.2% | 0hPa | 0V | 00:00:00 | 00:00:00 | 00:00:00 | |
| DL9RDZ-1 | 2026-09-01 11:52:42 | 63.91647 | -22.05008 | 81° | 37km/h | 15046m | 5.1m/s | -46.3°C | 1.2% | 0hPa | 0V | 00:00:00 | 00:00:00 | 00:00:00 | |
| DL9RDZ-1 | 2026-09-01 11:52:31 | 63.91632 | -22.05246 | 76° | 40km/h | 14989m | 4.4m/s | -46.2°C | 1.2% | 0hPa | 0V | 00:00:00 | 00:00:00 | 00:00:00 | |
| DL9RDZ-1 | 2026-09-01 11:52:20 | 63.91600 | -22.05519 | 74° | 46km/h | 14931m | 5.1m/s | -46.2°C | 1.2% | 0hPa | 0V | 00:00:00 | 00:00:00 | 00:00:00 | |
| DL9RDZ-1 | 2026-09-01 11:52:11 | 63.91563 | -22.05773 | 74° | 35km/h | 14872m | 4.6m/s | -46.6°C | 1.3% | 0hPa | 0V | 00:00:00 | 00:00:00 | 00:00:00 | |
| DL9RDZ-1 | 2026-09-01 11:51:59 | 63.91546 | -22.05996 | 81° | 38km/h | 14814m | 5.3m/s | -46.5°C | 1.3% | 0hPa | 0V | 00:00:00 | 00:00:00 | 00:00:00 | |
| DL9RDZ-1 | 2026-09-01 11:51:48 | 63.91537 | -22.06199 | 93° | 33km/h | 14763m | 6.2m/s | -46.7°C | 1.3% | 0hPa | 0V | 00:00:00 | 00:00:00 | 00:00:00 | |
| DL9RDZ-1 | 2026-09-01 11:51:38 | 63.91543 | -22.06421 | 92° | 44km/h | 14711m | 5.3m/s | -46.7°C | 1.3% | 0hPa | 0V | 00:00:00 | 00:00:00 | 00:00:00 | |
| DL9RDZ-1 | 2026-09-01 11:51:28 | 63.91549 | -22.06699 | 96° | 53km/h | 14652m | 4.4m/s | -46.9°C | 1.3% | 0hPa | 0V | 00:00:00 | 00:00:00 | 00:00:00 | |
| DL9RDZ-1 | 2026-09-01 11:51:18 | 63.91546 | -22.06998 | 85° | 51km/h | 14597m | 4.8m/s | -46.9°C | 1.3% | 0hPa | 0V | 00:00:00 | 00:00:00 | 00:00:00 | |
| DL9RDZ-1 | 2026-09-01 11:51:07 | 63.91534 | -22.07317 | 76° | 49km/h | 14544m | 4.4m/s | -47.0°C | 1.3% | 0hPa | 0V | 00:00:00 | 00:00:00 | 00:00:00 | |
| DL9RDZ-1 | 2026-09-01 11:50:56 | 63.91502 | -22.07578 | 72° | 42km/h | 14490m | 5.4m/s | -47.0°C | 1.3% | 0hPa | 0V | 00:00:00 | 00:00:00 | 00:00:00 | |
| DL9RDZ-1 | 2026-09-01 11:50:46 | 63.91462 | -22.07816 | 68° | 38km/h | 14434m | 5.8m/s | -46.9°C | 1.3% | 0hPa | 0V | 00:00:00 | 00:00:00 | 00:00:00 | |
| DL9RDZ-1 | 2026-09-01 11:50:35 | 63.91428 | -22.08014 | 69° | 33km/h | 14380m | 5.9m/s | -46.9°C | 1.3% | 0hPa | 0V | 00:00:00 | 00:00:00 | 00:00:00 | |
| DL9RDZ-1 | 2026-09-01 11:50:25 | 63.91404 | -22.08206 | 76° | 35km/h | 14332m | 4.6m/s | -46.8°C | 1.3% | 0hPa | 0V | 00:00:00 | 00:00:00 | 00:00:00 | |
| DL9RDZ-1 | 2026-09-01 11:50:15 | 63.91389 | -22.08404 | 90° | 35km/h | 14274m | 5.5m/s | -46.7°C | 1.3% | 0hPa | 0V | 00:00:00 | 00:00:00 | 00:00:00 | |
| DL9RDZ-1 | 2026-09-01 11:50:04 | 63.91389 | -22.08593 | 101° | 38km/h | 14224m | 4.2m/s | -46.7°C | 1.3% | 0hPa | 0V | 00:00:00 | 00:00:00 | 00:00:00 | |
| DL9RDZ-1 | 2026-09-01 11:49:54 | 63.91404 | -22.08838 | 99° | 37km/h | 14166m | 5.9m/s | -46.6°C | 1.3% | 0hPa | 0V | 00:00:00 | 00:00:00 | 00:00:00 | |
| DL9RDZ-1 | 2026-09-01 11:49:44 | 63.91428 | -22.09058 | 97° | 35km/h | 14116m | 3.9m/s | -46.3°C | 1.3% | 0hPa | 0V | 00:00:00 | 00:00:00 | 00:00:00 | |
| DL9RDZ-1 | 2026-09-01 11:49:31 | 63.91445 | -22.09319 | 103° | 40km/h | 14055m | 4.4m/s | -46.2°C | 1.3% | 0hPa | 0V | 00:00:00 | 00:00:00 | 00:00:00 | |
| DL9RDZ-1 | 2026-09-01 11:49:21 | 63.91457 | -22.09576 | 96° | 44km/h | 14000m | 4.2m/s | -46.2°C | 1.3% | 0hPa | 0V | 00:00:00 | 00:00:00 | 00:00:00 | |
| DL9RDZ-1 | 2026-09-01 11:49:11 | 63.91463 | -22.09813 | 92° | 44km/h | 13952m | 4.8m/s | -46.4°C | 1.3% | 0hPa | 0V | 00:00:00 | 00:00:00 | 00:00:00 | |
| DL9RDZ-1 | 2026-09-01 11:49:00 | 63.91468 | -22.10108 | 98° | 46km/h | 13892m | 5.0m/s | -46.4°C | 1.3% | 0hPa | 0V | 00:00:00 | 00:00:00 | 00:00:00 | |
| DL9RDZ-1 | 2026-09-01 11:48:48 | 63.91466 | -22.10455 | 82° | 42km/h | 13832m | 4.9m/s | -46.2°C | 1.3% | 0hPa | 0V | 00:00:00 | 00:00:00 | 00:00:00 | |
| DL9RDZ-1 | 2026-09-01 11:48:37 | 63.91456 | -22.10722 | 92° | 37km/h | 13775m | 4.0m/s | -46.2°C | 1.3% | 0hPa | 0V | 00:00:00 | 00:00:00 | 00:00:00 | |
| DL9RDZ-1 | 2026-09-01 11:48:26 | 63.91449 | -22.10922 | 87° | 40km/h | 13723m | 4.7m/s | -46.2°C | 1.3% | 0hPa | 0V | 00:00:00 | 00:00:00 | 00:00:00 | |
| DL9RDZ-1 | 2026-09-01 11:48:16 | 63.91441 | -22.11156 | 81° | 40km/h | 13669m | 4.6m/s | -46.2°C | 1.3% | 0hPa | 0V | 00:00:00 | 00:00:00 | 00:00:00 | |
| DL9RDZ-1 | 2026-09-01 11:48:05 | 63.91430 | -22.11398 | 84° | 46km/h | 13620m | 5.5m/s | -46.0°C | 1.3% | 0hPa | 0V | 00:00:00 | 00:00:00 | 00:00:00 | |
| DL9RDZ-1 | 2026-09-01 11:47:54 | 63.91410 | -22.11698 | 89° | 49km/h | 13565m | 5.7m/s | -46.0°C | 1.4% | 0hPa | 0V | 00:00:00 | 00:00:00 | 00:00:00 | |
| DL9RDZ-1 | 2026-09-01 11:47:45 | 63.91413 | -22.11983 | 88° | 51km/h | 13518m | 4.3m/s | -45.9°C | 1.3% | 0hPa | 0V | 00:00:00 | 00:00:00 | 00:00:00 | |
| DL9RDZ-1 | 2026-09-01 11:47:34 | 63.91408 | -22.12276 | 87° | 49km/h | 13461m | 4.0m/s | -46.1°C | 1.4% | 0hPa | 0V | 00:00:00 | 00:00:00 | 00:00:00 | |
| DL9RDZ-1 | 2026-09-01 11:47:23 | 63.91402 | -22.12543 | 86° | 51km/h | 13410m | 4.6m/s | -46.3°C | 1.3% | 0hPa | 0V | 00:00:00 | 00:00:00 | 00:00:00 | |
| DL9RDZ-1 | 2026-09-01 11:47:13 | 63.91386 | -22.12864 | 83° | 46km/h | 13357m | 4.4m/s | -46.5°C | 1.4% | 0hPa | 0V | 00:00:00 | 00:00:00 | 00:00:00 | |
| DL9RDZ-1 | 2026-09-01 11:47:04 | 63.91363 | -22.13140 | 77° | 53km/h | 13310m | 4.9m/s | -46.3°C | 1.4% | 0hPa | 0V | 00:00:00 | 00:00:00 | 00:00:00 | |
| DL9RDZ-1 | 2026-09-01 11:46:53 | 63.91333 | -22.13420 | 77° | 47km/h | 13263m | 4.1m/s | -46.1°C | 1.3% | 0hPa | 0V | 00:00:00 | 00:00:00 | 00:00:00 | |
| DL9RDZ-1 | 2026-09-01 11:46:31 | 63.91321 | -22.14014 | 86° | 44km/h | 13148m | 4.1m/s | -46.2°C | 1.4% | 0hPa | 0V | 00:00:00 | 00:00:00 | 00:00:00 | |
| DL9RDZ-1 | 2026-09-01 11:46:21 | 63.91301 | -22.14284 | 78° | 47km/h | 13100m | 4.5m/s | -46.6°C | 1.4% | 0hPa | 0V | 00:00:00 | 00:00:00 | 00:00:00 | |
| DL9RDZ-1 | 2026-09-01 11:46:10 | 63.91286 | -22.14561 | 85° | 46km/h | 13052m | 5.2m/s | -46.8°C | 1.4% | 0hPa | 0V | 00:00:00 | 00:00:00 | 00:00:00 | |
| DL9RDZ-1 | 2026-09-01 11:46:00 | 63.91275 | -22.14833 | 89° | 44km/h | 12996m | 4.5m/s | -46.9°C | 1.4% | 0hPa | 0V | 00:00:00 | 00:00:00 | 00:00:00 | |
| DL9RDZ-1 | 2026-09-01 11:45:50 | 63.91275 | -22.15109 | 89° | 44km/h | 12944m | 4.4m/s | -46.8°C | 1.4% | 0hPa | 0V | 00:00:00 | 00:00:00 | 00:00:00 | |
| DL9RDZ-1 | 2026-09-01 11:45:38 | 63.91270 | -22.15397 | 86° | 46km/h | 12891m | 3.6m/s | -47.0°C | 1.5% | 0hPa | 0V | 00:00:00 | 00:00:00 | 00:00:00 | |
| DL9RDZ-1 | 2026-09-01 11:45:28 | 63.91258 | -22.15664 | 84° | 46km/h | 12843m | 5.2m/s | -46.8°C | 1.5% | 0hPa | 0V | 00:00:00 | 00:00:00 | 00:00:00 | |
| DL9RDZ-1 | 2026-09-01 11:45:19 | 63.91245 | -22.15938 | 82° | 47km/h | 12793m | 5.7m/s | -47.1°C | 1.4% | 0hPa | 0V | 00:00:00 | 00:00:00 | 00:00:00 | |
| DL9RDZ-1 | 2026-09-01 11:45:08 | 63.91234 | -22.16172 | 88° | 40km/h | 12741m | 5.2m/s | -47.0°C | 1.4% | 0hPa | 0V | 00:00:00 | 00:00:00 | 00:00:00 | |
| DL9RDZ-1 | 2026-09-01 11:44:56 | 63.91238 | -22.16407 | 101° | 33km/h | 12685m | 3.7m/s | -47.4°C | 1.5% | 0hPa | 0V | 00:00:00 | 00:00:00 | 00:00:00 | |
| DL9RDZ-1 | 2026-09-01 11:44:45 | 63.91244 | -22.16624 | 91° | 37km/h | 12633m | 3.7m/s | -47.7°C | 1.5% | 0hPa | 0V | 00:00:00 | 00:00:00 | 00:00:00 | |
| DL9RDZ-1 | 2026-09-01 11:44:34 | 63.91251 | -22.16877 | 96° | 46km/h | 12583m | 4.6m/s | -47.9°C | 1.6% | 0hPa | 0V | 00:00:00 | 00:00:00 | 00:00:00 | |
| DL9RDZ-1 | 2026-09-01 11:44:23 | 63.91264 | -22.17164 | 100° | 47km/h | 12532m | 5.0m/s | -48.0°C | 1.6% | 0hPa | 0V | 00:00:00 | 00:00:00 | 00:00:00 | |
| DL9RDZ-1 | 2026-09-01 11:44:12 | 63.91272 | -22.17454 | 92° | 49km/h | 12479m | 3.5m/s | -48.1°C | 1.6% | 0hPa | 0V | 00:00:00 | 00:00:00 | 00:00:00 | |
| DL9RDZ-1 | 2026-09-01 11:44:02 | 63.91272 | -22.17725 | 84° | 44km/h | 12429m | 4.4m/s | -48.1°C | 1.7% | 0hPa | 0V | 00:00:00 | 00:00:00 | 00:00:00 | |
| DL9RDZ-1 | 2026-09-01 11:43:51 | 63.91267 | -22.17994 | 89° | 40km/h | 12375m | 5.5m/s | -48.3°C | 1.7% | 0hPa | 0V | 00:00:00 | 00:00:00 | 00:00:00 | |
| DL9RDZ-1 | 2026-09-01 11:43:40 | 63.91272 | -22.18251 | 99° | 40km/h | 12322m | 3.4m/s | -48.5°C | 1.8% | 0hPa | 0V | 00:00:00 | 00:00:00 | 00:00:00 | |
| DL9RDZ-1 | 2026-09-01 11:43:31 | 63.91275 | -22.18492 | 101° | 42km/h | 12275m | 3.9m/s | -48.8°C | 1.9% | 0hPa | 0V | 00:00:00 | 00:00:00 | 00:00:00 | |
| DL9RDZ-1 | 2026-09-01 11:43:19 | 63.91284 | -22.18773 | 94° | 49km/h | 12225m | 4.6m/s | -48.9°C | 1.9% | 0hPa | 0V | 00:00:00 | 00:00:00 | 00:00:00 | |
| DL9RDZ-1 | 2026-09-01 11:43:08 | 63.91301 | -22.19075 | 93° | 51km/h | 12175m | 4.2m/s | -48.7°C | 1.8% | 0hPa | 0V | 00:00:00 | 00:00:00 | 00:00:00 | |
| DL9RDZ-1 | 2026-09-01 11:42:57 | 63.91321 | -22.19369 | 100° | 44km/h | 12123m | 5.6m/s | -49.3°C | 1.9% | 0hPa | 0V | 00:00:00 | 00:00:00 | 00:00:00 | |
| DL9RDZ-1 | 2026-09-01 11:42:47 | 63.91338 | -22.19645 | 98° | 46km/h | 12075m | 4.8m/s | -49.3°C | 1.9% | 0hPa | 0V | 00:00:00 | 00:00:00 | 00:00:00 | |
| DL9RDZ-1 | 2026-09-01 11:42:36 | 63.91352 | -22.19944 | 99° | 44km/h | 12023m | 3.5m/s | -49.4°C | 2.0% | 0hPa | 0V | 00:00:00 | 00:00:00 | 00:00:00 | |
| DL9RDZ-1 | 2026-09-01 11:42:26 | 63.91365 | -22.20191 | 102° | 40km/h | 11976m | 4.2m/s | -49.4°C | 2.0% | 0hPa | 0V | 00:00:00 | 00:00:00 | 00:00:00 | |
| DL9RDZ-1 | 2026-09-01 11:42:15 | 63.91381 | -22.20478 | 98° | 53km/h | 11925m | 4.8m/s | -49.2°C | 2.1% | 0hPa | 0V | 00:00:00 | 00:00:00 | 00:00:00 | |
| DL9RDZ-1 | 2026-09-01 11:42:04 | 63.91408 | -22.20778 | 102° | 57km/h | 11873m | 5.2m/s | -49.9°C | 2.3% | 0hPa | 0V | 00:00:00 | 00:00:00 | 00:00:00 | |
| DL9RDZ-1 | 2026-09-01 11:41:53 | 63.91430 | -22.21134 | 97° | 58km/h | 11820m | 4.2m/s | -50.1°C | 2.5% | 0hPa | 0V | 00:00:00 | 00:00:00 | 00:00:00 | |
| DL9RDZ-1 | 2026-09-01 11:41:42 | 63.91436 | -22.21506 | 94° | 57km/h | 11767m | 5.8m/s | -50.5°C | 2.7% | 0hPa | 0V | 00:00:00 | 00:00:00 | 00:00:00 | |
| DL9RDZ-1 | 2026-09-01 11:41:32 | 63.91438 | -22.21836 | 89° | 60km/h | 11720m | 3.9m/s | -50.7°C | 2.9% | 0hPa | 0V | 00:00:00 | 00:00:00 | 00:00:00 | |
| DL9RDZ-1 | 2026-09-01 11:41:22 | 63.91426 | -22.22150 | 84° | 53km/h | 11674m | 3.9m/s | -50.7°C | 3.0% | 0hPa | 0V | 00:00:00 | 00:00:00 | 00:00:00 | |
| DL9RDZ-1 | 2026-09-01 11:41:11 | 63.91407 | -22.22476 | 80° | 47km/h | 11621m | 5.0m/s | -50.7°C | 3.3% | 0hPa | 0V | 00:00:00 | 00:00:00 | 00:00:00 | |
| DL9RDZ-1 | 2026-09-01 11:41:00 | 63.91389 | -22.22765 | 84° | 40km/h | 11567m | 6.7m/s | -50.9°C | 3.5% | 0hPa | 0V | 00:00:00 | 00:00:00 | 00:00:00 | |
| DL9RDZ-1 | 2026-09-01 11:40:49 | 63.91396 | -22.23023 | 96° | 42km/h | 11510m | 5.0m/s | -50.8°C | 4.0% | 0hPa | 0V | 00:00:00 | 00:00:00 | 00:00:00 | |
| DL9RDZ-1 | 2026-09-01 11:40:40 | 63.91407 | -22.23250 | 106° | 46km/h | 11463m | 5.9m/s | -51.3°C | 4.7% | 0hPa | 0V | 00:00:00 | 00:00:00 | 00:00:00 | |
| DL9RDZ-1 | 2026-09-01 11:40:28 | 63.91430 | -22.23520 | 93° | 42km/h | 11412m | 5.4m/s | -52.5°C | 6.0% | 0hPa | 0V | 00:00:00 | 00:00:00 | 00:00:00 | |
| DL9RDZ-1 | 2026-09-01 11:40:18 | 63.91435 | -22.23805 | 93° | 49km/h | 11360m | 4.9m/s | -53.5°C | 7.9% | 0hPa | 0V | 00:00:00 | 00:00:00 | 00:00:00 | |
| DL9RDZ-1 | 2026-09-01 11:40:06 | 63.91446 | -22.24086 | 100° | 46km/h | 11309m | 4.9m/s | -53.5°C | 9.5% | 0hPa | 0V | 00:00:00 | 00:00:00 | 00:00:00 | |
| DL9RDZ-1 | 2026-09-01 11:39:56 | 63.91463 | -22.24368 | 102° | 55km/h | 11262m | 5.0m/s | -53.5°C | 12.1% | 0hPa | 0V | 00:00:00 | 00:00:00 | 00:00:00 | |
| DL9RDZ-1 | 2026-09-01 11:39:46 | 63.91488 | -22.24656 | 103° | 51km/h | 11213m | 5.7m/s | -53.9°C | 16.5% | 0hPa | 0V | 00:00:00 | 00:00:00 | 00:00:00 | |
| DL9RDZ-1 | 2026-09-01 11:39:36 | 63.91509 | -22.24947 | 98° | 57km/h | 11163m | 5.2m/s | -54.6°C | 22.9% | 0hPa | 0V | 00:00:00 | 00:00:00 | 00:00:00 | |
| DL9RDZ-1 | 2026-09-01 11:39:25 | 63.91514 | -22.25326 | 94° | 55km/h | 11109m | 4.2m/s | -56.8°C | 34.3% | 0hPa | 0V | 00:00:00 | 00:00:00 | 00:00:00 | |
| DL9RDZ-1 | 2026-09-01 11:39:15 | 63.91515 | -22.25637 | 90° | 49km/h | 11064m | 4.8m/s | -57.5°C | 40.5% | 0hPa | 0V | 00:00:00 | 00:00:00 | 00:00:00 | |
| DL9RDZ-1 | 2026-09-01 11:39:05 | 63.91511 | -22.25928 | 89° | 49km/h | 11016m | 5.6m/s | -58.2°C | 44.6% | 0hPa | 0V | 00:00:00 | 00:00:00 | 00:00:00 | |
| DL9RDZ-1 | 2026-09-01 11:38:54 | 63.91519 | -22.26233 | 89° | 47km/h | 10964m | 4.0m/s | -58.5°C | 46.2% | 0hPa | 0V | 00:00:00 | 00:00:00 | 00:00:00 | |
| DL9RDZ-1 | 2026-09-01 11:38:43 | 63.91517 | -22.26543 | 90° | 51km/h | 10911m | 4.0m/s | -58.6°C | 45.3% | 0hPa | 0V | 00:00:00 | 00:00:00 | 00:00:00 | |
| DL9RDZ-1 | 2026-09-01 11:38:33 | 63.91524 | -22.26844 | 94° | 55km/h | 10866m | 4.0m/s | -58.3°C | 45.5% | 0hPa | 0V | 00:00:00 | 00:00:00 | 00:00:00 | |
| DL9RDZ-1 | 2026-09-01 11:38:22 | 63.91530 | -22.27182 | 95° | 51km/h | 10814m | 5.5m/s | -58.4°C | 45.9% | 0hPa | 0V | 00:00:00 | 00:00:00 | 00:00:00 | |
| DL9RDZ-1 | 2026-09-01 11:38:11 | 63.91537 | -22.27512 | 97° | 57km/h | 10762m | 4.7m/s | -58.3°C | 48.3% | 0hPa | 0V | 00:00:00 | 00:00:00 | 00:00:00 | |
| DL9RDZ-1 | 2026-09-01 11:38:00 | 63.91556 | -22.27849 | 98° | 53km/h | 10710m | 4.6m/s | -58.2°C | 50.8% | 0hPa | 0V | 00:00:00 | 00:00:00 | 00:00:00 | |
| DL9RDZ-1 | 2026-09-01 11:37:50 | 63.91583 | -22.28161 | 107° | 55km/h | 10661m | 4.6m/s | -58.3°C | 55.8% | 0hPa | 0V | 00:00:00 | 00:00:00 | 00:00:00 | |
| DL9RDZ-1 | 2026-09-01 11:37:39 | 63.91608 | -22.28508 | 105° | 55km/h | 10610m | 5.4m/s | -58.4°C | 58.5% | 0hPa | 0V | 00:00:00 | 00:00:00 | 00:00:00 | |
| DL9RDZ-1 | 2026-09-01 11:37:29 | 63.91637 | -22.28811 | 102° | 58km/h | 10564m | 4.4m/s | -58.5°C | 61.2% | 0hPa | 0V | 00:00:00 | 00:00:00 | 00:00:00 | |
| DL9RDZ-1 | 2026-09-01 11:37:18 | 63.91664 | -22.29161 | 100° | 57km/h | 10515m | 4.3m/s | -58.4°C | 62.3% | 0hPa | 0V | 00:00:00 | 00:00:00 | 00:00:00 | |
| DL9RDZ-1 | 2026-09-01 11:37:08 | 63.91702 | -22.29502 | 100° | 49km/h | 10466m | 3.8m/s | -58.1°C | 62.4% | 0hPa | 0V | 00:00:00 | 00:00:00 | 00:00:00 | |
| DL9RDZ-1 | 2026-09-01 11:36:56 | 63.91741 | -22.29822 | 104° | 58km/h | 10417m | 5.5m/s | -57.9°C | 63.1% | 0hPa | 0V | 00:00:00 | 00:00:00 | 00:00:00 | |
| DL9RDZ-1 | 2026-09-01 11:36:45 | 63.91779 | -22.30167 | 105° | 57km/h | 10365m | 4.2m/s | -57.7°C | 62.9% | 0hPa | 0V | 00:00:00 | 00:00:00 | 00:00:00 | |
| DL9RDZ-1 | 2026-09-01 11:36:35 | 63.91812 | -22.30482 | 103° | 57km/h | 10318m | 5.9m/s | -57.3°C | 62.0% | 0hPa | 0V | 00:00:00 | 00:00:00 | 00:00:00 | |
| DL9RDZ-1 | 2026-09-01 11:36:25 | 63.91845 | -22.30800 | 108° | 58km/h | 10270m | 4.1m/s | -57.1°C | 64.7% | 0hPa | 0V | 00:00:00 | 00:00:00 | 00:00:00 | |
| DL9RDZ-1 | 2026-09-01 11:36:14 | 63.91882 | -22.31156 | 106° | 62km/h | 10219m | 5.5m/s | -56.9°C | 61.1% | 0hPa | 0V | 00:00:00 | 00:00:00 | 00:00:00 | |
| DL9RDZ-1 | 2026-09-01 11:36:03 | 63.91919 | -22.31515 | 105° | 57km/h | 10167m | 5.4m/s | -56.7°C | 63.2% | 0hPa | 0V | 00:00:00 | 00:00:00 | 00:00:00 | |
| DL9RDZ-1 | 2026-09-01 11:35:53 | 63.91960 | -22.31828 | 106° | 57km/h | 10117m | 4.7m/s | -56.4°C | 62.2% | 0hPa | 0V | 00:00:00 | 00:00:00 | 00:00:00 | |
| DL9RDZ-1 | 2026-09-01 11:35:42 | 63.92006 | -22.32174 | 110° | 57km/h | 10064m | 5.8m/s | -56.0°C | 57.8% | 0hPa | 0V | 00:00:00 | 00:00:00 | 00:00:00 | |
| DL9RDZ-1 | 2026-09-01 11:35:32 | 63.92056 | -22.32495 | 112° | 57km/h | 10018m | 4.4m/s | -55.7°C | 53.9% | 0hPa | 0V | 00:00:00 | 00:00:00 | 00:00:00 | |
| DL9RDZ-1 | 2026-09-01 11:35:22 | 63.92094 | -22.32801 | 108° | 57km/h | 9974m | 4.1m/s | -55.3°C | 55.3% | 0hPa | 0V | 00:00:00 | 00:00:00 | 00:00:00 | |
| DL9RDZ-1 | 2026-09-01 11:35:11 | 63.92145 | -22.33133 | 110° | 55km/h | 9925m | 4.8m/s | -55.0°C | 55.6% | 0hPa | 0V | 00:00:00 | 00:00:00 | 00:00:00 | |
| DL9RDZ-1 | 2026-09-01 11:35:01 | 63.92197 | -22.33429 | 112° | 53km/h | 9878m | 3.9m/s | -54.7°C | 57.6% | 0hPa | 0V | 00:00:00 | 00:00:00 | 00:00:00 | |
| DL9RDZ-1 | 2026-09-01 11:34:50 | 63.92252 | -22.33754 | 111° | 57km/h | 9822m | 4.6m/s | -54.2°C | 56.9% | 0hPa | 0V | 00:00:00 | 00:00:00 | 00:00:00 | |
| DL9RDZ-1 | 2026-09-01 11:34:40 | 63.92308 | -22.34064 | 113° | 55km/h | 9776m | 4.1m/s | -53.9°C | 55.1% | 0hPa | 0V | 00:00:00 | 00:00:00 | 00:00:00 | |
| DL9RDZ-1 | 2026-09-01 11:34:29 | 63.92371 | -22.34394 | 114° | 57km/h | 9723m | 3.3m/s | -53.5°C | 53.3% | 0hPa | 0V | 00:00:00 | 00:00:00 | 00:00:00 | |
| DL9RDZ-1 | 2026-09-01 11:34:19 | 63.92431 | -22.34728 | 114° | 57km/h | 9675m | 4.6m/s | -53.1°C | 51.3% | 0hPa | 0V | 00:00:00 | 00:00:00 | 00:00:00 | |
| DL9RDZ-1 | 2026-09-01 11:34:08 | 63.92492 | -22.35052 | 112° | 53km/h | 9624m | 4.4m/s | -52.7°C | 51.2% | 0hPa | 0V | 00:00:00 | 00:00:00 | 00:00:00 | |
| DL9RDZ-1 | 2026-09-01 11:33:57 | 63.92543 | -22.35353 | 109° | 57km/h | 9581m | 4.7m/s | -52.4°C | 50.4% | 0hPa | 0V | 00:00:00 | 00:00:00 | 00:00:00 | |
| DL9RDZ-1 | 2026-09-01 11:33:46 | 63.92595 | -22.35680 | 111° | 53km/h | 9529m | 3.2m/s | -52.1°C | 52.5% | 0hPa | 0V | 00:00:00 | 00:00:00 | 00:00:00 | |
| DL9RDZ-1 | 2026-09-01 11:33:35 | 63.92645 | -22.35999 | 110° | 55km/h | 9475m | 5.2m/s | -51.7°C | 52.5% | 0hPa | 0V | 00:00:00 | 00:00:00 | 00:00:00 | |
| DL9RDZ-1 | 2026-09-01 11:33:24 | 63.92697 | -22.36320 | 115° | 57km/h | 9423m | 4.0m/s | -51.2°C | 53.0% | 0hPa | 0V | 00:00:00 | 00:00:00 | 00:00:00 | |
| DL9RDZ-1 | 2026-09-01 11:33:13 | 63.92751 | -22.36657 | 114° | 58km/h | 9373m | 4.1m/s | -50.9°C | 53.3% | 0hPa | 0V | 00:00:00 | 00:00:00 | 00:00:00 | |
| DL9RDZ-1 | 2026-09-01 11:33:03 | 63.92802 | -22.36963 | 112° | 57km/h | 9326m | 3.3m/s | -50.7°C | 55.0% | 0hPa | 0V | 00:00:00 | 00:00:00 | 00:00:00 | |
| DL9RDZ-1 | 2026-09-01 11:32:53 | 63.92854 | -22.37258 | 114° | 57km/h | 9280m | 2.5m/s | -50.5°C | 55.0% | 0hPa | 0V | 00:00:00 | 00:00:00 | 00:00:00 | |
| DL9RDZ-1 | 2026-09-01 11:32:42 | 63.92905 | -22.37584 | 107° | 58km/h | 9234m | 3.6m/s | -50.2°C | 55.8% | 0hPa | 0V | 00:00:00 | 00:00:00 | 00:00:00 | |
| DL9RDZ-1 | 2026-09-01 11:32:31 | 63.92956 | -22.37925 | 110° | 57km/h | 9184m | 4.1m/s | -49.9°C | 56.8% | 0hPa | 0V | 00:00:00 | 00:00:00 | 00:00:00 | |
| DL9RDZ-1 | 2026-09-01 11:32:20 | 63.93005 | -22.38253 | 110° | 57km/h | 9134m | 4.5m/s | -49.5°C | 57.5% | 0hPa | 0V | 00:00:00 | 00:00:00 | 00:00:00 | |
| DL9RDZ-1 | 2026-09-01 11:32:10 | 63.93054 | -22.38555 | 108° | 55km/h | 9091m | 5.0m/s | -49.1°C | 57.9% | 0hPa | 0V | 00:00:00 | 00:00:00 | 00:00:00 | |
| DL9RDZ-1 | 2026-09-01 11:31:59 | 63.93097 | -22.38879 | 108° | 55km/h | 9039m | 5.2m/s | -48.7°C | 59.9% | 0hPa | 0V | 00:00:00 | 00:00:00 | 00:00:00 | |
| DL9RDZ-1 | 2026-09-01 11:31:48 | 63.93153 | -22.39199 | 115° | 55km/h | 8978m | 4.9m/s | -48.3°C | 60.4% | 0hPa | 0V | 00:00:00 | 00:00:00 | 00:00:00 | |
| DL9RDZ-1 | 2026-09-01 11:31:37 | 63.93201 | -22.39509 | 105° | 53km/h | 8918m | 3.6m/s | -47.8°C | 62.5% | 0hPa | 0V | 00:00:00 | 00:00:00 | 00:00:00 | |
| DL9RDZ-1 | 2026-09-01 11:31:26 | 63.93254 | -22.39825 | 111° | 51km/h | 8861m | 3.6m/s | -47.5°C | 64.8% | 0hPa | 0V | 00:00:00 | 00:00:00 | 00:00:00 | |
| DL9RDZ-1 | 2026-09-01 11:31:15 | 63.93301 | -22.40130 | 113° | 49km/h | 8808m | 5.5m/s | -47.1°C | 66.5% | 0hPa | 0V | 00:00:00 | 00:00:00 | 00:00:00 | |
| DL9RDZ-1 | 2026-09-01 11:31:05 | 63.93349 | -22.40407 | 112° | 49km/h | 8759m | 5.6m/s | -46.6°C | 67.4% | 0hPa | 0V | 00:00:00 | 00:00:00 | 00:00:00 | |
| DL9RDZ-1 | 2026-09-01 11:30:54 | 63.93405 | -22.40701 | 112° | 51km/h | 8705m | 4.5m/s | -46.2°C | 69.0% | 0hPa | 0V | 00:00:00 | 00:00:00 | 00:00:00 | |
| DL9RDZ-1 | 2026-09-01 11:30:43 | 63.93459 | -22.40995 | 117° | 49km/h | 8648m | 5.1m/s | -45.8°C | 67.7% | 0hPa | 0V | 00:00:00 | 00:00:00 | 00:00:00 | |
| DL9RDZ-1 | 2026-09-01 11:30:28 | 63.93538 | -22.41390 | 112° | 47km/h | 8571m | 5.6m/s | -45.1°C | 68.3% | 0hPa | 0V | 00:00:00 | 00:00:00 | 00:00:00 | |
| DL9RDZ-1 | 2026-09-01 11:30:18 | 63.93590 | -22.41664 | 113° | 51km/h | 8519m | 4.8m/s | -44.7°C | 67.5% | 0hPa | 0V | 00:00:00 | 00:00:00 | 00:00:00 | |
| DL9RDZ-1 | 2026-09-01 11:30:08 | 63.93645 | -22.41975 | 115° | 51km/h | 8461m | 4.4m/s | -44.2°C | 68.4% | 0hPa | 0V | 00:00:00 | 00:00:00 | 00:00:00 | |
| DL9RDZ-1 | 2026-09-01 11:29:57 | 63.93689 | -22.42242 | 118° | 53km/h | 8408m | 3.8m/s | -43.9°C | 69.7% | 0hPa | 0V | 00:00:00 | 00:00:00 | 00:00:00 | |
| DL9RDZ-1 | 2026-09-01 11:29:47 | 63.93748 | -22.42535 | 113° | 53km/h | 8354m | 3.8m/s | -43.6°C | 72.1% | 0hPa | 0V | 00:00:00 | 00:00:00 | 00:00:00 | |
| DL9RDZ-1 | 2026-09-01 11:29:35 | 63.93810 | -22.42832 | 121° | 51km/h | 8297m | 4.6m/s | -43.2°C | 73.3% | 0hPa | 0V | 00:00:00 | 00:00:00 | 00:00:00 | |
| DL9RDZ-1 | 2026-09-01 11:29:25 | 63.93860 | -22.43082 | 115° | 49km/h | 8250m | 4.0m/s | -42.8°C | 72.3% | 0hPa | 0V | 00:00:00 | 00:00:00 | 00:00:00 | |
| DL9RDZ-1 | 2026-09-01 11:29:07 | 63.93942 | -22.43549 | 109° | 47km/h | 8170m | 3.3m/s | -42.2°C | 70.9% | 0hPa | 0V | 00:00:00 | 00:00:00 | 00:00:00 | |
| DL9RDZ-1 | 2026-09-01 11:28:56 | 63.93985 | -22.43828 | 110° | 44km/h | 8117m | 5.1m/s | -41.8°C | 69.5% | 0hPa | 0V | 00:00:00 | 00:00:00 | 00:00:00 | |
| DL9RDZ-1 | 2026-09-01 11:28:45 | 63.94022 | -22.44111 | 112° | 49km/h | 8062m | 6.0m/s | -41.4°C | 72.5% | 0hPa | 0V | 00:00:00 | 00:00:00 | 00:00:00 | |
| DL9RDZ-1 | 2026-09-01 11:28:34 | 63.94075 | -22.44391 | 106° | 51km/h | 7997m | 6.2m/s | -40.9°C | 72.8% | 0hPa | 0V | 00:00:00 | 00:00:00 | 00:00:00 | |
| DL9RDZ-1 | 2026-09-01 11:28:25 | 63.94112 | -22.44650 | 118° | 47km/h | 7937m | 5.4m/s | -40.6°C | 73.6% | 0hPa | 0V | 00:00:00 | 00:00:00 | 00:00:00 | |
| DL9RDZ-1 | 2026-09-01 11:28:13 | 63.94153 | -22.44926 | 112° | 46km/h | 7878m | 5.4m/s | -40.0°C | 73.0% | 0hPa | 0V | 00:00:00 | 00:00:00 | 00:00:00 | |
| DL9RDZ-1 | 2026-09-01 11:28:03 | 63.94191 | -22.45177 | 104° | 53km/h | 7828m | 3.1m/s | -39.6°C | 74.4% | 0hPa | 0V | 00:00:00 | 00:00:00 | 00:00:00 | |
| DL9RDZ-1 | 2026-09-01 11:27:52 | 63.94222 | -22.45465 | 103° | 51km/h | 7766m | 4.6m/s | -39.3°C | 70.1% | 0hPa | 0V | 00:00:00 | 00:00:00 | 00:00:00 | |
| DL9RDZ-1 | 2026-09-01 11:27:41 | 63.94249 | -22.45773 | 100° | 60km/h | 7714m | 3.1m/s | -39.0°C | 71.8% | 0hPa | 0V | 00:00:00 | 00:00:00 | 00:00:00 | |
| DL9RDZ-1 | 2026-09-01 11:27:31 | 63.94271 | -22.46040 | 104° | 42km/h | 7653m | 3.2m/s | -38.6°C | 71.3% | 0hPa | 0V | 00:00:00 | 00:00:00 | 00:00:00 | |
| DL9RDZ-1 | 2026-09-01 11:27:20 | 63.94292 | -22.46271 | 103° | 42km/h | 7588m | 9.1m/s | -38.1°C | 66.0% | 0hPa | 0V | 00:00:00 | 00:00:00 | 00:00:00 | |
| DL9RDZ-1 | 2026-09-01 11:27:10 | 63.94318 | -22.46527 | 101° | 40km/h | 7522m | 6.6m/s | -37.5°C | 67.4% | 0hPa | 0V | 00:00:00 | 00:00:00 | 00:00:00 | |
| DL9RDZ-1 | 2026-09-01 11:26:58 | 63.94330 | -22.46757 | 100° | 37km/h | 7467m | 5.6m/s | -37.1°C | 68.9% | 0hPa | 0V | 00:00:00 | 00:00:00 | 00:00:00 | |
| DL9RDZ-1 | 2026-09-01 11:26:47 | 63.94343 | -22.47002 | 99° | 51km/h | 7412m | 5.7m/s | -36.8°C | 72.6% | 0hPa | 0V | 00:00:00 | 00:00:00 | 00:00:00 | |
| DL9RDZ-1 | 2026-09-01 11:26:36 | 63.94343 | -22.47258 | 90° | 38km/h | 7348m | 7.2m/s | -36.2°C | 66.4% | 0hPa | 0V | 00:00:00 | 00:00:00 | 00:00:00 | |
| DL9RDZ-1 | 2026-09-01 11:26:27 | 63.94347 | -22.47495 | 80° | 33km/h | 7295m | 7.1m/s | -35.9°C | 66.8% | 0hPa | 0V | 00:00:00 | 00:00:00 | 00:00:00 | |
| DL9RDZ-1 | 2026-09-01 11:26:16 | 63.94344 | -22.47725 | 83° | 37km/h | 7233m | 4.4m/s | -35.3°C | 69.2% | 0hPa | 0V | 00:00:00 | 00:00:00 | 00:00:00 | |
| DL9RDZ-1 | 2026-09-01 11:26:05 | 63.94358 | -22.47964 | 84° | 40km/h | 7165m | 7.0m/s | -34.9°C | 68.7% | 0hPa | 0V | 00:00:00 | 00:00:00 | 00:00:00 | |
| DL9RDZ-1 | 2026-09-01 11:25:54 | 63.94370 | -22.48176 | 96° | 35km/h | 7108m | 7.6m/s | -34.4°C | 66.4% | 0hPa | 0V | 00:00:00 | 00:00:00 | 00:00:00 | |
| DL9RDZ-1 | 2026-09-01 11:25:43 | 63.94376 | -22.48437 | 85° | 47km/h | 7051m | 3.9m/s | -33.8°C | 66.3% | 0hPa | 0V | 00:00:00 | 00:00:00 | 00:00:00 | |
| DL9RDZ-1 | 2026-09-01 11:25:32 | 63.94392 | -22.48668 | 104° | 49km/h | 6992m | 5.2m/s | -33.4°C | 67.3% | 0hPa | 0V | 00:00:00 | 00:00:00 | 00:00:00 | |
| DL9RDZ-1 | 2026-09-01 11:25:22 | 63.94408 | -22.48910 | 107° | 44km/h | 6927m | 5.1m/s | -32.8°C | 67.9% | 0hPa | 0V | 00:00:00 | 00:00:00 | 00:00:00 | |
| DL9RDZ-1 | 2026-09-01 11:25:10 | 63.94430 | -22.49162 | 111° | 29km/h | 6872m | 6.4m/s | -32.3°C | 68.7% | 0hPa | 0V | 00:00:00 | 00:00:00 | 00:00:00 | |
| DL9RDZ-1 | 2026-09-01 11:24:59 | 63.94446 | -22.49393 | 102° | 35km/h | 6800m | 7.2m/s | -31.8°C | 67.8% | 0hPa | 0V | 00:00:00 | 00:00:00 | 00:00:00 | |
| DL9RDZ-1 | 2026-09-01 11:24:48 | 63.94465 | -22.49654 | 118° | 40km/h | 6735m | 3.9m/s | -31.5°C | 69.1% | 0hPa | 0V | 00:00:00 | 00:00:00 | 00:00:00 | |
| DL9RDZ-1 | 2026-09-01 11:24:38 | 63.94478 | -22.49834 | 88° | 37km/h | 6685m | 5.4m/s | -31.1°C | 72.0% | 0hPa | 0V | 00:00:00 | 00:00:00 | 00:00:00 | |
| DL9RDZ-1 | 2026-09-01 11:24:28 | 63.94484 | -22.50073 | 97° | 37km/h | 6631m | 10.6m/s | -30.8°C | 73.5% | 0hPa | 0V | 00:00:00 | 00:00:00 | 00:00:00 | |
| DL9RDZ-1 | 2026-09-01 11:24:18 | 63.94510 | -22.50267 | 103° | 37km/h | 6575m | 4.4m/s | -30.2°C | 74.0% | 0hPa | 0V | 00:00:00 | 00:00:00 | 00:00:00 | |
| DL9RDZ-1 | 2026-09-01 11:24:08 | 63.94528 | -22.50547 | 82° | 49km/h | 6515m | 5.3m/s | -29.7°C | 72.8% | 0hPa | 0V | 00:00:00 | 00:00:00 | 00:00:00 | |
| DL9RDZ-1 | 2026-09-01 11:23:57 | 63.94535 | -22.50746 | 109° | 46km/h | 6443m | 4.8m/s | -29.2°C | 71.1% | 0hPa | 0V | 00:00:00 | 00:00:00 | 00:00:00 | |
| DL9RDZ-1 | 2026-09-01 11:23:47 | 63.94549 | -22.51048 | 105° | 46km/h | 6388m | 4.5m/s | -28.7°C | 73.2% | 0hPa | 0V | 00:00:00 | 00:00:00 | 00:00:00 | |
| DL9RDZ-1 | 2026-09-01 11:23:21 | 63.94575 | -22.51569 | 84° | 33km/h | 6261m | 7.0m/s | -27.9°C | 70.8% | 0hPa | 0V | 00:00:00 | 00:00:00 | 00:00:00 | |
| DL9RDZ-1 | 2026-09-01 11:23:12 | 63.94596 | -22.51793 | 107° | 53km/h | 6190m | 5.5m/s | -27.5°C | 70.7% | 0hPa | 0V | 00:00:00 | 00:00:00 | 00:00:00 | |
| DL9RDZ-1 | 2026-09-01 11:23:02 | 63.94600 | -22.52074 | 84° | 51km/h | 6136m | 2.1m/s | -27.1°C | 72.0% | 0hPa | 0V | 00:00:00 | 00:00:00 | 00:00:00 | |
| DL9RDZ-1 | 2026-09-01 11:22:51 | 63.94619 | -22.52332 | 94° | 42km/h | 6078m | 7.2m/s | -26.7°C | 73.1% | 0hPa | 0V | 00:00:00 | 00:00:00 | 00:00:00 | |
| DL9RDZ-1 | 2026-09-01 11:22:40 | 63.94618 | -22.52595 | 95° | 44km/h | 6016m | 4.6m/s | -26.1°C | 73.2% | 0hPa | 0V | 00:00:00 | 00:00:00 | 00:00:00 | |
| DL9RDZ-1 | 2026-09-01 11:22:30 | 63.94630 | -22.52833 | 90° | 49km/h | 5954m | 4.0m/s | -25.7°C | 71.6% | 0hPa | 0V | 00:00:00 | 00:00:00 | 00:00:00 | |
| DL9RDZ-1 | 2026-09-01 11:22:20 | 63.94630 | -22.53075 | 82° | 44km/h | 5893m | 5.5m/s | -25.2°C | 69.0% | 0hPa | 0V | 00:00:00 | 00:00:00 | 00:00:00 | |
| DL9RDZ-1 | 2026-09-01 11:22:09 | 63.94646 | -22.53280 | 100° | 33km/h | 5830m | 4.6m/s | -24.9°C | 69.5% | 0hPa | 0V | 00:00:00 | 00:00:00 | 00:00:00 | |
| DL9RDZ-1 | 2026-09-01 11:21:58 | 63.94678 | -22.53517 | 111° | 31km/h | 5776m | 5.1m/s | -24.4°C | 70.6% | 0hPa | 0V | 00:00:00 | 00:00:00 | 00:00:00 | |
| DL9RDZ-1 | 2026-09-01 11:21:47 | 63.94701 | -22.53744 | 111° | 37km/h | 5713m | 6.3m/s | -24.2°C | 74.0% | 0hPa | 0V | 00:00:00 | 00:00:00 | 00:00:00 | |
| DL9RDZ-1 | 2026-09-01 11:21:37 | 63.94712 | -22.53938 | 102° | 37km/h | 5658m | 4.4m/s | -23.8°C | 74.3% | 0hPa | 0V | 00:00:00 | 00:00:00 | 00:00:00 | |
| DL9RDZ-1 | 2026-09-01 11:21:26 | 63.94730 | -22.54137 | 105° | 42km/h | 5594m | 6.3m/s | -23.4°C | 73.1% | 0hPa | 0V | 00:00:00 | 00:00:00 | 00:00:00 | |
| DL9RDZ-1 | 2026-09-01 11:21:05 | 63.94767 | -22.54543 | 134° | 35km/h | 5480m | 6.2m/s | -22.5°C | 69.0% | 0hPa | 0V | 00:00:00 | 00:00:00 | 00:00:00 | |
| DL9RDZ-1 | 2026-09-01 11:20:55 | 63.94818 | -22.54723 | 122° | 35km/h | 5422m | 6.9m/s | -22.0°C | 67.1% | 0hPa | 0V | 00:00:00 | 00:00:00 | 00:00:00 | |
| DL9RDZ-1 | 2026-09-01 11:20:44 | 63.94857 | -22.54904 | 112° | 40km/h | 5346m | 8.0m/s | -21.9°C | 68.8% | 0hPa | 0V | 00:00:00 | 00:00:00 | 00:00:00 | |
| DL9RDZ-1 | 2026-09-01 11:20:33 | 63.94914 | -22.55073 | 135° | 16km/h | 5277m | 6.5m/s | -21.4°C | 64.3% | 0hPa | 0V | 00:00:00 | 00:00:00 | 00:00:00 | |
| DL9RDZ-1 | 2026-09-01 11:20:22 | 63.94956 | -22.55174 | 151° | 27km/h | 5218m | 4.3m/s | -21.0°C | 63.2% | 0hPa | 0V | 00:00:00 | 00:00:00 | 00:00:00 | |
| DL9RDZ-1 | 2026-09-01 11:20:12 | 63.95005 | -22.55301 | 118° | 24km/h | 5154m | 7.0m/s | -20.7°C | 62.1% | 0hPa | 0V | 00:00:00 | 00:00:00 | 00:00:00 | |
| DL9RDZ-1 | 2026-09-01 11:20:00 | 63.95051 | -22.55428 | 134° | 29km/h | 5092m | 6.0m/s | -20.3°C | 60.5% | 0hPa | 0V | 00:00:00 | 00:00:00 | 00:00:00 | |
| DL9RDZ-1 | 2026-09-01 11:19:50 | 63.95096 | -22.55575 | 112° | 24km/h | 5039m | 3.7m/s | -19.9°C | 60.1% | 0hPa | 0V | 00:00:00 | 00:00:00 | 00:00:00 | |
| DL9RDZ-1 | 2026-09-01 11:19:39 | 63.95142 | -22.55708 | 131° | 22km/h | 4977m | 6.5m/s | -19.5°C | 59.0% | 0hPa | 0V | 00:00:00 | 00:00:00 | 00:00:00 | |
| DL9RDZ-1 | 2026-09-01 11:19:29 | 63.95198 | -22.55778 | 162° | 16km/h | 4925m | 7.8m/s | -19.3°C | 58.9% | 0hPa | 0V | 00:00:00 | 00:00:00 | 00:00:00 | |
| DL9RDZ-1 | 2026-09-01 11:19:18 | 63.95242 | -22.55896 | 137° | 33km/h | 4866m | 8.1m/s | -19.0°C | 59.2% | 0hPa | 0V | 00:00:00 | 00:00:00 | 00:00:00 | |
| DL9RDZ-1 | 2026-09-01 11:19:08 | 63.95299 | -22.56020 | 158° | 26km/h | 4804m | 7.1m/s | -18.6°C | 59.2% | 0hPa | 0V | 00:00:00 | 00:00:00 | 00:00:00 | |
| DL9RDZ-1 | 2026-09-01 11:17:44 | 63.95627 | -22.56918 | 117° | 24km/h | 4340m | 4.4m/s | -16.2°C | 63.4% | 0hPa | 0V | 00:00:00 | 00:00:00 | 00:00:00 | |
| DL9RDZ-1 | 2026-09-01 11:17:34 | 63.95680 | -22.57016 | 161° | 31km/h | 4283m | 3.0m/s | -16.0°C | 64.8% | 0hPa | 0V | 00:00:00 | 00:00:00 | 00:00:00 | |
| DL9RDZ-1 | 2026-09-01 11:17:25 | 63.95721 | -22.57062 | 150° | 22km/h | 4228m | 8.9m/s | -15.9°C | 64.3% | 0hPa | 0V | 00:00:00 | 00:00:00 | 00:00:00 | |
| DL9RDZ-1 | 2026-09-01 11:17:14 | 63.95756 | -22.57151 | 125° | 15km/h | 4160m | 7.0m/s | -15.5°C | 64.9% | 0hPa | 0V | 00:00:00 | 00:00:00 | 00:00:00 | |
| DL9RDZ-1 | 2026-09-01 11:16:58 | 63.95817 | -22.57337 | 147° | 22km/h | 4075m | 3.3m/s | -15.2°C | 65.5% | 0hPa | 0V | 00:00:00 | 00:00:00 | 00:00:00 | |
| DL9RDZ-1 | 2026-09-01 11:16:36 | 63.95889 | -22.57519 | 125° | 31km/h | 3963m | 5.2m/s | -14.7°C | 65.8% | 0hPa | 0V | 00:00:00 | 00:00:00 | 00:00:00 | |
| DL9RDZ-1 | 2026-09-01 11:16:26 | 63.95909 | -22.57657 | 124° | 15km/h | 3909m | 4.0m/s | -14.4°C | 66.0% | 0hPa | 0V | 00:00:00 | 00:00:00 | 00:00:00 | |
| DL9RDZ-1 | 2026-09-01 11:16:04 | 63.95971 | -22.57858 | 115° | 20km/h | 3792m | 4.9m/s | -13.7°C | 63.2% | 0hPa | 0V | 00:00:00 | 00:00:00 | 00:00:00 | |
| DL9RDZ-1 | 2026-09-01 11:15:53 | 63.95996 | -22.57935 | 155° | 26km/h | 3732m | 6.3m/s | -13.4°C | 66.3% | 0hPa | 0V | 00:00:00 | 00:00:00 | 00:00:00 | |
| DL9RDZ-1 | 2026-09-01 11:15:42 | 63.96030 | -22.58028 | 151° | 26km/h | 3674m | 6.9m/s | -13.0°C | 64.4% | 0hPa | 0V | 00:00:00 | 00:00:00 | 00:00:00 | |
| DL9RDZ-1 | 2026-09-01 11:15:32 | 63.96071 | -22.58124 | 135° | 22km/h | 3609m | 5.5m/s | -12.6°C | 63.9% | 0hPa | 0V | 00:00:00 | 00:00:00 | 00:00:00 | |
| DL9RDZ-1 | 2026-09-01 11:15:21 | 63.96095 | -22.58234 | 108° | 29km/h | 3552m | 7.3m/s | -12.4°C | 64.3% | 0hPa | 0V | 00:00:00 | 00:00:00 | 00:00:00 | |
| DL9RDZ-1 | 2026-09-01 11:15:10 | 63.96113 | -22.58330 | 117° | 26km/h | 3499m | 6.2m/s | -12.1°C | 63.9% | 0hPa | 0V | 00:00:00 | 00:00:00 | 00:00:00 | |
| DL9RDZ-1 | 2026-09-01 11:15:00 | 63.96139 | -22.58425 | 100° | 18km/h | 3441m | 4.1m/s | -11.8°C | 64.2% | 0hPa | 0V | 00:00:00 | 00:00:00 | 00:00:00 | |
| DL9RDZ-1 | 2026-09-01 11:14:48 | 63.96145 | -22.58496 | 143° | 20km/h | 3384m | 5.7m/s | -11.5°C | 62.3% | 0hPa | 0V | 00:00:00 | 00:00:00 | 00:00:00 | |
| DL9RDZ-1 | 2026-09-01 11:14:39 | 63.96179 | -22.58586 | 137° | 18km/h | 3325m | 5.0m/s | -11.4°C | 59.9% | 0hPa | 0V | 00:00:00 | 00:00:00 | 00:00:00 | |
| DL9RDZ-1 | 2026-09-01 11:14:27 | 63.96230 | -22.58706 | 144° | 16km/h | 3265m | 4.8m/s | -11.4°C | 63.7% | 0hPa | 0V | 00:00:00 | 00:00:00 | 00:00:00 | |
| DL9RDZ-1 | 2026-09-01 11:14:17 | 63.96243 | -22.58789 | 130° | 15km/h | 3209m | 4.6m/s | -11.0°C | 65.6% | 0hPa | 0V | 00:00:00 | 00:00:00 | 00:00:00 | |
| DL9RDZ-1 | 2026-09-01 11:14:07 | 63.96278 | -22.58903 | 123° | 20km/h | 3146m | 5.9m/s | -10.5°C | 65.0% | 0hPa | 0V | 00:00:00 | 00:00:00 | 00:00:00 | |
| DL9RDZ-1 | 2026-09-01 11:13:19 | 63.96388 | -22.59286 | 81° | 13km/h | 2878m | 5.3m/s | -8.5°C | 49.8% | 0hPa | 0V | 00:00:00 | 00:00:00 | 00:00:00 | |
| DL9RDZ-1 | 2026-09-01 11:13:08 | 63.96424 | -22.59358 | 150° | 11km/h | 2811m | 6.2m/s | -8.1°C | 49.6% | 0hPa | 0V | 00:00:00 | 00:00:00 | 00:00:00 | |
| DL9RDZ-1 | 2026-09-01 11:12:57 | 63.96453 | -22.59446 | 137° | 24km/h | 2749m | 5.7m/s | -7.5°C | 41.4% | 0hPa | 0V | 00:00:00 | 00:00:00 | 00:00:00 | |
| DL9RDZ-1 | 2026-09-01 11:12:47 | 63.96478 | -22.59533 | 96° | 11km/h | 2695m | 2.5m/s | -7.0°C | 42.0% | 0hPa | 0V | 00:00:00 | 00:00:00 | 00:00:00 | |
| DL9RDZ-1 | 2026-09-01 11:12:37 | 63.96493 | -22.59601 | 166° | 18km/h | 2636m | 4.6m/s | -6.6°C | 40.4% | 0hPa | 0V | 00:00:00 | 00:00:00 | 00:00:00 | |
| DL9RDZ-1 | 2026-09-01 11:12:27 | 63.96514 | -22.59660 | 149° | 15km/h | 2583m | 5.6m/s | -6.1°C | 38.6% | 0hPa | 0V | 00:00:00 | 00:00:00 | 00:00:00 | |
| DL9RDZ-1 | 2026-09-01 11:12:16 | 63.96553 | -22.59689 | 137° | 18km/h | 2519m | 4.9m/s | -5.6°C | 36.6% | 0hPa | 0V | 00:00:00 | 00:00:00 | 00:00:00 | |
| DL9RDZ-1 | 2026-09-01 11:12:05 | 63.96571 | -22.59768 | 146° | 9km/h | 2459m | 4.9m/s | -5.1°C | 33.5% | 0hPa | 0V | 00:00:00 | 00:00:00 | 00:00:00 | |
| DL9RDZ-1 | 2026-09-01 11:11:54 | 63.96591 | -22.59801 | 125° | 15km/h | 2399m | 4.0m/s | -4.7°C | 33.8% | 0hPa | 0V | 00:00:00 | 00:00:00 | 00:00:00 | |
| DL9RDZ-1 | 2026-09-01 11:11:43 | 63.96618 | -22.59869 | 107° | 24km/h | 2336m | 5.0m/s | -4.3°C | 33.7% | 0hPa | 0V | 00:00:00 | 00:00:00 | 00:00:00 | |
| DL9RDZ-1 | 2026-09-01 11:11:32 | 63.96659 | -22.59968 | 174° | 9km/h | 2281m | 5.1m/s | -4.2°C | 43.3% | 0hPa | 0V | 00:00:00 | 00:00:00 | 00:00:00 | |
| DL9RDZ-1 | 2026-09-01 11:11:21 | 63.96691 | -22.60002 | 195° | 7km/h | 2224m | 7.4m/s | -3.6°C | 35.2% | 0hPa | 0V | 00:00:00 | 00:00:00 | 00:00:00 | |
| DL9RDZ-1 | 2026-09-01 11:11:11 | 63.96709 | -22.60048 | 120° | 24km/h | 2162m | 6.6m/s | -3.2°C | 32.6% | 0hPa | 0V | 00:00:00 | 00:00:00 | 00:00:00 | |
| DL9RDZ-1 | 2026-09-01 11:11:00 | 63.96735 | -22.60124 | 82° | 15km/h | 2100m | 5.9m/s | -2.7°C | 29.6% | 0hPa | 0V | 00:00:00 | 00:00:00 | 00:00:00 | |
| DL9RDZ-1 | 2026-09-01 11:10:49 | 63.96746 | -22.60176 | 68° | 4km/h | 2046m | 5.0m/s | -2.6°C | 25.7% | 0hPa | 0V | 00:00:00 | 00:00:00 | 00:00:00 | |
| DL9RDZ-1 | 2026-09-01 11:10:38 | 63.96759 | -22.60169 | 176° | 9km/h | 1991m | 6.7m/s | -2.3°C | 30.5% | 0hPa | 0V | 00:00:00 | 00:00:00 | 00:00:00 | |
| DL9RDZ-1 | 2026-09-01 11:10:27 | 63.96789 | -22.60220 | 154° | 18km/h | 1936m | 5.2m/s | -2.0°C | 32.7% | 0hPa | 0V | 00:00:00 | 00:00:00 | 00:00:00 | |
| DL9RDZ-1 | 2026-09-01 11:10:04 | 63.96852 | -22.60325 | 102° | 15km/h | 1815m | 6.0m/s | -1.9°C | 63.1% | 0hPa | 0V | 00:00:00 | 00:00:00 | 00:00:00 | |
| DL9RDZ-1 | 2026-09-01 11:09:54 | 63.96859 | -22.60371 | 74° | 7km/h | 1762m | 3.8m/s | -1.6°C | 70.9% | 0hPa | 0V | 00:00:00 | 00:00:00 | 00:00:00 | |
| DL9RDZ-1 | 2026-09-01 11:09:44 | 63.96858 | -22.60395 | 168° | 4km/h | 1707m | 3.8m/s | -1.1°C | 71.4% | 0hPa | 0V | 00:00:00 | 00:00:00 | 00:00:00 | |
| DL9RDZ-1 | 2026-09-01 11:09:33 | 63.96844 | -22.60414 | 55° | 13km/h | 1654m | 6.0m/s | -0.9°C | 73.3% | 0hPa | 0V | 00:00:00 | 00:00:00 | 00:00:00 | |
| DL9RDZ-1 | 2026-09-01 11:09:24 | 63.96835 | -22.60419 | 166° | 5km/h | 1597m | 4.7m/s | -0.6°C | 74.7% | 0hPa | 0V | 00:00:00 | 00:00:00 | 00:00:00 | |
| DL9RDZ-1 | 2026-09-01 11:09:13 | 63.96831 | -22.60440 | 305° | 4km/h | 1543m | 5.9m/s | -0.2°C | 69.8% | 0hPa | 0V | 00:00:00 | 00:00:00 | 00:00:00 | |
| DL9RDZ-1 | 2026-09-01 11:09:04 | 63.96814 | -22.60462 | 34° | 15km/h | 1490m | 5.4m/s | 0.3°C | 65.5% | 0hPa | 0V | 00:00:00 | 00:00:00 | 00:00:00 | |
| DL9RDZ-1 | 2026-09-01 11:08:52 | 63.96801 | -22.60513 | 56° | 15km/h | 1429m | 5.2m/s | 0.6°C | 62.4% | 0hPa | 0V | 00:00:00 | 00:00:00 | 00:00:00 | |
| DL9RDZ-1 | 2026-09-01 11:08:42 | 63.96799 | -22.60551 | 0° | 0km/h | 1371m | 5.1m/s | 0.9°C | 64.3% | 0hPa | 0V | 00:00:00 | 00:00:00 | 00:00:00 | |
| DL9RDZ-1 | 2026-09-01 11:08:30 | 63.96786 | -22.60576 | 85° | 13km/h | 1315m | 6.6m/s | 1.2°C | 66.0% | 0hPa | 0V | 00:00:00 | 00:00:00 | 00:00:00 | |
| DL9RDZ-1 | 2026-09-01 11:08:19 | 63.96779 | -22.60600 | 91° | 11km/h | 1252m | 5.2m/s | 1.5°C | 70.6% | 0hPa | 0V | 00:00:00 | 00:00:00 | 00:00:00 | |
| DL9RDZ-1 | 2026-09-01 11:08:08 | 63.96775 | -22.60665 | 64° | 13km/h | 1191m | 5.0m/s | 1.9°C | 69.2% | 0hPa | 0V | 00:00:00 | 00:00:00 | 00:00:00 | |
| DL9RDZ-1 | 2026-09-01 11:07:47 | 63.96798 | -22.60788 | 115° | 15km/h | 1069m | 4.9m/s | 2.6°C | 65.6% | 0hPa | 0V | 00:00:00 | 00:00:00 | 00:00:00 | |
| DL9RDZ-1 | 2026-09-01 11:07:37 | 63.96808 | -22.60846 | 119° | 11km/h | 1014m | 4.9m/s | 3.0°C | 0% | 0hPa | 0V | 00:00:00 | 00:00:00 | 00:00:00 | |
| DL9RDZ-1 | 2026-09-01 11:07:27 | 63.96813 | -22.60894 | 113° | 13km/h | 960m | 7.1m/s | 3.5°C | 0% | 0hPa | 0V | 00:00:00 | 00:00:00 | 00:00:00 | |
| DL9RDZ-1 | 2026-09-01 11:07:17 | 63.96818 | -22.60923 | 105° | 5km/h | 905m | 5.0m/s | 3.8°C | 0% | 0hPa | 0V | 00:00:00 | 00:00:00 | 00:00:00 | |
| DL9RDZ-1 | 2026-09-01 11:07:06 | 63.96817 | -22.60987 | 80° | 4km/h | 844m | 4.3m/s | 3.9°C | 0% | 0hPa | 0V | 00:00:00 | 00:00:00 | 00:00:00 | |
| DL9RDZ-1 | 2026-09-01 11:06:55 | 63.96810 | -22.61061 | 75° | 15km/h | 785m | 6.0m/s | 0°C | 0% | 0hPa | 0V | 00:00:00 | 00:00:00 | 00:00:00 |